<?xml version="1.0" encoding="UTF-8" standalone="no" ?>
<gpx xmlns="http://www.topografix.com/GPX/1/1" xmlns:xsi="http://www.w3.org/2001/XMLSchema-instance" xsi:schemaLocation="http://www.topografix.com/GPX/1/1 http://www.topografix.com/GPX/1/1/gpx.xsd" version="1.1" creator="VisuGPX - https://www.visugpx.com">
  <metadata>
    <name>25 Bosses par JA Martin</name>
    <desc><![CDATA[25 Bosses par JA Martin]]></desc>
  </metadata>
  <trk>
    <name><![CDATA[25 bosses marche par JA Martin 18-08-2007]]></name>
    <trkseg>
      <trkpt lat="48.37263" lon="2.51071">
        <ele>70</ele>
        <time>2007-08-18T09:40:59Z</time>
      </trkpt>
      <trkpt lat="48.37277" lon="2.51047">
        <ele>69</ele>
        <time>2007-08-18T09:41:08Z</time>
      </trkpt>
      <trkpt lat="48.37301" lon="2.51004">
        <ele>68</ele>
        <time>2007-08-18T09:41:11Z</time>
      </trkpt>
      <trkpt lat="48.3731" lon="2.50981">
        <ele>67</ele>
        <time>2007-08-18T09:41:17Z</time>
      </trkpt>
      <trkpt lat="48.37301" lon="2.50999">
        <ele>68</ele>
        <time>2007-08-18T09:41:20Z</time>
      </trkpt>
      <trkpt lat="48.37289" lon="2.51026">
        <ele>68</ele>
        <time>2007-08-18T09:41:24Z</time>
      </trkpt>
      <trkpt lat="48.37265" lon="2.51074">
        <ele>70</ele>
        <time>2007-08-18T09:41:32Z</time>
      </trkpt>
      <trkpt lat="48.37278" lon="2.51074">
        <ele>69</ele>
        <time>2007-08-18T09:42:06Z</time>
      </trkpt>
      <trkpt lat="48.37292" lon="2.51082">
        <ele>69</ele>
        <time>2007-08-18T09:42:24Z</time>
      </trkpt>
      <trkpt lat="48.37299" lon="2.51103">
        <ele>69</ele>
        <time>2007-08-18T09:42:41Z</time>
      </trkpt>
      <trkpt lat="48.37311" lon="2.51116">
        <ele>69</ele>
        <time>2007-08-18T09:42:54Z</time>
      </trkpt>
      <trkpt lat="48.37325" lon="2.51125">
        <ele>69</ele>
        <time>2007-08-18T09:43:05Z</time>
      </trkpt>
      <trkpt lat="48.3734" lon="2.51134">
        <ele>69</ele>
        <time>2007-08-18T09:43:17Z</time>
      </trkpt>
      <trkpt lat="48.37353" lon="2.51142">
        <ele>70</ele>
        <time>2007-08-18T09:43:29Z</time>
      </trkpt>
      <trkpt lat="48.37367" lon="2.51149">
        <ele>69</ele>
        <time>2007-08-18T09:43:42Z</time>
      </trkpt>
      <trkpt lat="48.3738" lon="2.51154">
        <ele>69</ele>
        <time>2007-08-18T09:43:53Z</time>
      </trkpt>
      <trkpt lat="48.37394" lon="2.51157">
        <ele>69</ele>
        <time>2007-08-18T09:44:04Z</time>
      </trkpt>
      <trkpt lat="48.37407" lon="2.5116">
        <ele>69</ele>
        <time>2007-08-18T09:44:16Z</time>
      </trkpt>
      <trkpt lat="48.37421" lon="2.51164">
        <ele>69</ele>
        <time>2007-08-18T09:44:26Z</time>
      </trkpt>
      <trkpt lat="48.37436" lon="2.51172">
        <ele>69</ele>
        <time>2007-08-18T09:44:38Z</time>
      </trkpt>
      <trkpt lat="48.37449" lon="2.51179">
        <ele>68</ele>
        <time>2007-08-18T09:44:49Z</time>
      </trkpt>
      <trkpt lat="48.37461" lon="2.51191">
        <ele>68</ele>
        <time>2007-08-18T09:45:00Z</time>
      </trkpt>
      <trkpt lat="48.37475" lon="2.51196">
        <ele>68</ele>
        <time>2007-08-18T09:45:10Z</time>
      </trkpt>
      <trkpt lat="48.37487" lon="2.51206">
        <ele>68</ele>
        <time>2007-08-18T09:45:20Z</time>
      </trkpt>
      <trkpt lat="48.375" lon="2.51214">
        <ele>68</ele>
        <time>2007-08-18T09:45:30Z</time>
      </trkpt>
      <trkpt lat="48.37514" lon="2.51218">
        <ele>67</ele>
        <time>2007-08-18T09:45:40Z</time>
      </trkpt>
      <trkpt lat="48.37526" lon="2.5123">
        <ele>67</ele>
        <time>2007-08-18T09:45:50Z</time>
      </trkpt>
      <trkpt lat="48.37536" lon="2.51247">
        <ele>67</ele>
        <time>2007-08-18T09:46:01Z</time>
      </trkpt>
      <trkpt lat="48.37547" lon="2.5126">
        <ele>67</ele>
        <time>2007-08-18T09:46:13Z</time>
      </trkpt>
      <trkpt lat="48.37559" lon="2.51272">
        <ele>67</ele>
        <time>2007-08-18T09:46:23Z</time>
      </trkpt>
      <trkpt lat="48.37569" lon="2.51287">
        <ele>67</ele>
        <time>2007-08-18T09:46:34Z</time>
      </trkpt>
      <trkpt lat="48.3758" lon="2.51302">
        <ele>67</ele>
        <time>2007-08-18T09:46:44Z</time>
      </trkpt>
      <trkpt lat="48.37592" lon="2.51292">
        <ele>67</ele>
        <time>2007-08-18T09:47:01Z</time>
      </trkpt>
      <trkpt lat="48.37604" lon="2.51278">
        <ele>67</ele>
        <time>2007-08-18T09:47:13Z</time>
      </trkpt>
      <trkpt lat="48.37617" lon="2.51275">
        <ele>67</ele>
        <time>2007-08-18T09:47:23Z</time>
      </trkpt>
      <trkpt lat="48.37631" lon="2.51275">
        <ele>67</ele>
        <time>2007-08-18T09:47:33Z</time>
      </trkpt>
      <trkpt lat="48.37644" lon="2.51275">
        <ele>68</ele>
        <time>2007-08-18T09:47:44Z</time>
      </trkpt>
      <trkpt lat="48.37658" lon="2.51269">
        <ele>68</ele>
        <time>2007-08-18T09:47:56Z</time>
      </trkpt>
      <trkpt lat="48.37671" lon="2.51259">
        <ele>69</ele>
        <time>2007-08-18T09:48:07Z</time>
      </trkpt>
      <trkpt lat="48.37685" lon="2.51254">
        <ele>70</ele>
        <time>2007-08-18T09:48:17Z</time>
      </trkpt>
      <trkpt lat="48.37698" lon="2.51262">
        <ele>70</ele>
        <time>2007-08-18T09:48:28Z</time>
      </trkpt>
      <trkpt lat="48.37709" lon="2.51277">
        <ele>71</ele>
        <time>2007-08-18T09:48:40Z</time>
      </trkpt>
      <trkpt lat="48.37722" lon="2.51286">
        <ele>72</ele>
        <time>2007-08-18T09:48:53Z</time>
      </trkpt>
      <trkpt lat="48.37733" lon="2.51301">
        <ele>72</ele>
        <time>2007-08-18T09:49:10Z</time>
      </trkpt>
      <trkpt lat="48.37746" lon="2.51302">
        <ele>71</ele>
        <time>2007-08-18T09:49:23Z</time>
      </trkpt>
      <trkpt lat="48.3776" lon="2.51295">
        <ele>71</ele>
        <time>2007-08-18T09:49:35Z</time>
      </trkpt>
      <trkpt lat="48.37772" lon="2.51281">
        <ele>70</ele>
        <time>2007-08-18T09:49:46Z</time>
      </trkpt>
      <trkpt lat="48.37782" lon="2.51263">
        <ele>68</ele>
        <time>2007-08-18T09:49:56Z</time>
      </trkpt>
      <trkpt lat="48.37787" lon="2.51244">
        <ele>67</ele>
        <time>2007-08-18T09:50:07Z</time>
      </trkpt>
      <trkpt lat="48.37797" lon="2.5123">
        <ele>66</ele>
        <time>2007-08-18T09:50:17Z</time>
      </trkpt>
      <trkpt lat="48.37808" lon="2.51217">
        <ele>66</ele>
        <time>2007-08-18T09:50:29Z</time>
      </trkpt>
      <trkpt lat="48.3782" lon="2.512">
        <ele>66</ele>
        <time>2007-08-18T09:50:46Z</time>
      </trkpt>
      <trkpt lat="48.37833" lon="2.5119">
        <ele>66</ele>
        <time>2007-08-18T09:50:58Z</time>
      </trkpt>
      <trkpt lat="48.37853" lon="2.51176">
        <ele>66</ele>
        <time>2007-08-18T09:51:16Z</time>
      </trkpt>
      <trkpt lat="48.37863" lon="2.51161">
        <ele>67</ele>
        <time>2007-08-18T09:51:26Z</time>
      </trkpt>
      <trkpt lat="48.37872" lon="2.51143">
        <ele>68</ele>
        <time>2007-08-18T09:51:37Z</time>
      </trkpt>
      <trkpt lat="48.37878" lon="2.51124">
        <ele>69</ele>
        <time>2007-08-18T09:51:48Z</time>
      </trkpt>
      <trkpt lat="48.37883" lon="2.51104">
        <ele>71</ele>
        <time>2007-08-18T09:51:58Z</time>
      </trkpt>
      <trkpt lat="48.37893" lon="2.51089">
        <ele>73</ele>
        <time>2007-08-18T09:52:11Z</time>
      </trkpt>
      <trkpt lat="48.37907" lon="2.51085">
        <ele>76</ele>
        <time>2007-08-18T09:52:24Z</time>
      </trkpt>
      <trkpt lat="48.37922" lon="2.51085">
        <ele>80</ele>
        <time>2007-08-18T09:52:42Z</time>
      </trkpt>
      <trkpt lat="48.37935" lon="2.51085">
        <ele>83</ele>
        <time>2007-08-18T09:53:02Z</time>
      </trkpt>
      <trkpt lat="48.37949" lon="2.5108">
        <ele>87</ele>
        <time>2007-08-18T09:53:26Z</time>
      </trkpt>
      <trkpt lat="48.37962" lon="2.51074">
        <ele>92</ele>
        <time>2007-08-18T09:53:53Z</time>
      </trkpt>
      <trkpt lat="48.37976" lon="2.5108">
        <ele>96</ele>
        <time>2007-08-18T09:54:22Z</time>
      </trkpt>
      <trkpt lat="48.37989" lon="2.51082">
        <ele>99</ele>
        <time>2007-08-18T09:54:48Z</time>
      </trkpt>
      <trkpt lat="48.38003" lon="2.5108">
        <ele>98</ele>
        <time>2007-08-18T09:55:18Z</time>
      </trkpt>
      <trkpt lat="48.38015" lon="2.51092">
        <ele>97</ele>
        <time>2007-08-18T09:55:44Z</time>
      </trkpt>
      <trkpt lat="48.38019" lon="2.51112">
        <ele>96</ele>
        <time>2007-08-18T09:56:10Z</time>
      </trkpt>
      <trkpt lat="48.38027" lon="2.5113">
        <ele>97</ele>
        <time>2007-08-18T09:56:33Z</time>
      </trkpt>
      <trkpt lat="48.3804" lon="2.51137">
        <ele>98</ele>
        <time>2007-08-18T09:56:55Z</time>
      </trkpt>
      <trkpt lat="48.38051" lon="2.51154">
        <ele>101</ele>
        <time>2007-08-18T09:57:13Z</time>
      </trkpt>
      <trkpt lat="48.38058" lon="2.51176">
        <ele>101</ele>
        <time>2007-08-18T09:57:30Z</time>
      </trkpt>
      <trkpt lat="48.38073" lon="2.51187">
        <ele>102</ele>
        <time>2007-08-18T09:57:47Z</time>
      </trkpt>
      <trkpt lat="48.38078" lon="2.51206">
        <ele>101</ele>
        <time>2007-08-18T09:58:05Z</time>
      </trkpt>
      <trkpt lat="48.38081" lon="2.51227">
        <ele>99</ele>
        <time>2007-08-18T09:58:30Z</time>
      </trkpt>
      <trkpt lat="48.38091" lon="2.51241">
        <ele>99</ele>
        <time>2007-08-18T09:58:51Z</time>
      </trkpt>
      <trkpt lat="48.38105" lon="2.51236">
        <ele>103</ele>
        <time>2007-08-18T09:59:27Z</time>
      </trkpt>
      <trkpt lat="48.38118" lon="2.51242">
        <ele>105</ele>
        <time>2007-08-18T09:59:45Z</time>
      </trkpt>
      <trkpt lat="48.38132" lon="2.51245">
        <ele>102</ele>
        <time>2007-08-18T10:00:14Z</time>
      </trkpt>
      <trkpt lat="48.38145" lon="2.51251">
        <ele>98</ele>
        <time>2007-08-18T10:00:44Z</time>
      </trkpt>
      <trkpt lat="48.38159" lon="2.5126">
        <ele>92</ele>
        <time>2007-08-18T10:01:02Z</time>
      </trkpt>
      <trkpt lat="48.38172" lon="2.51259">
        <ele>90</ele>
        <time>2007-08-18T10:01:23Z</time>
      </trkpt>
      <trkpt lat="48.38186" lon="2.51251">
        <ele>90</ele>
        <time>2007-08-18T10:01:58Z</time>
      </trkpt>
      <trkpt lat="48.38199" lon="2.51251">
        <ele>87</ele>
        <time>2007-08-18T10:02:18Z</time>
      </trkpt>
      <trkpt lat="48.38213" lon="2.5125">
        <ele>85</ele>
        <time>2007-08-18T10:02:43Z</time>
      </trkpt>
      <trkpt lat="48.38226" lon="2.51253">
        <ele>84</ele>
        <time>2007-08-18T10:03:04Z</time>
      </trkpt>
      <trkpt lat="48.3824" lon="2.51262">
        <ele>83</ele>
        <time>2007-08-18T10:03:23Z</time>
      </trkpt>
      <trkpt lat="48.38252" lon="2.51275">
        <ele>82</ele>
        <time>2007-08-18T10:03:35Z</time>
      </trkpt>
      <trkpt lat="48.38264" lon="2.5129">
        <ele>83</ele>
        <time>2007-08-18T10:03:52Z</time>
      </trkpt>
      <trkpt lat="48.38276" lon="2.51308">
        <ele>85</ele>
        <time>2007-08-18T10:04:09Z</time>
      </trkpt>
      <trkpt lat="48.38288" lon="2.51323">
        <ele>88</ele>
        <time>2007-08-18T10:04:27Z</time>
      </trkpt>
      <trkpt lat="48.383" lon="2.5134">
        <ele>91</ele>
        <time>2007-08-18T10:04:45Z</time>
      </trkpt>
      <trkpt lat="48.3831" lon="2.51358">
        <ele>94</ele>
        <time>2007-08-18T10:05:02Z</time>
      </trkpt>
      <trkpt lat="48.38313" lon="2.51379">
        <ele>96</ele>
        <time>2007-08-18T10:05:20Z</time>
      </trkpt>
      <trkpt lat="48.38325" lon="2.51389">
        <ele>97</ele>
        <time>2007-08-18T10:05:45Z</time>
      </trkpt>
      <trkpt lat="48.38333" lon="2.51409">
        <ele>98</ele>
        <time>2007-08-18T10:06:03Z</time>
      </trkpt>
      <trkpt lat="48.38339" lon="2.51434">
        <ele>99</ele>
        <time>2007-08-18T10:06:20Z</time>
      </trkpt>
      <trkpt lat="48.38345" lon="2.51454">
        <ele>97</ele>
        <time>2007-08-18T10:06:32Z</time>
      </trkpt>
      <trkpt lat="48.38351" lon="2.51475">
        <ele>94</ele>
        <time>2007-08-18T10:06:44Z</time>
      </trkpt>
      <trkpt lat="48.38357" lon="2.51494">
        <ele>90</ele>
        <time>2007-08-18T10:06:56Z</time>
      </trkpt>
      <trkpt lat="48.38352" lon="2.51515">
        <ele>89</ele>
        <time>2007-08-18T10:07:13Z</time>
      </trkpt>
      <trkpt lat="48.38351" lon="2.51536">
        <ele>88</ele>
        <time>2007-08-18T10:07:34Z</time>
      </trkpt>
      <trkpt lat="48.38343" lon="2.51554">
        <ele>88</ele>
        <time>2007-08-18T10:07:53Z</time>
      </trkpt>
      <trkpt lat="48.38342" lon="2.51583">
        <ele>90</ele>
        <time>2007-08-18T10:08:10Z</time>
      </trkpt>
      <trkpt lat="48.38336" lon="2.51602">
        <ele>94</ele>
        <time>2007-08-18T10:08:23Z</time>
      </trkpt>
      <trkpt lat="48.38331" lon="2.51622">
        <ele>99</ele>
        <time>2007-08-18T10:08:45Z</time>
      </trkpt>
      <trkpt lat="48.38321" lon="2.51637">
        <ele>102</ele>
        <time>2007-08-18T10:09:04Z</time>
      </trkpt>
      <trkpt lat="48.38313" lon="2.51655">
        <ele>104</ele>
        <time>2007-08-18T10:09:25Z</time>
      </trkpt>
      <trkpt lat="48.38313" lon="2.51676">
        <ele>106</ele>
        <time>2007-08-18T10:09:53Z</time>
      </trkpt>
      <trkpt lat="48.38306" lon="2.51694">
        <ele>109</ele>
        <time>2007-08-18T10:10:21Z</time>
      </trkpt>
      <trkpt lat="48.38301" lon="2.51713">
        <ele>109</ele>
        <time>2007-08-18T10:10:49Z</time>
      </trkpt>
      <trkpt lat="48.38307" lon="2.51733">
        <ele>102</ele>
        <time>2007-08-18T10:11:35Z</time>
      </trkpt>
      <trkpt lat="48.38321" lon="2.51733">
        <ele>100</ele>
        <time>2007-08-18T10:11:52Z</time>
      </trkpt>
      <trkpt lat="48.38333" lon="2.51746">
        <ele>94</ele>
        <time>2007-08-18T10:12:27Z</time>
      </trkpt>
      <trkpt lat="48.38342" lon="2.51763">
        <ele>88</ele>
        <time>2007-08-18T10:13:00Z</time>
      </trkpt>
      <trkpt lat="48.38355" lon="2.5177">
        <ele>85</ele>
        <time>2007-08-18T10:13:40Z</time>
      </trkpt>
      <trkpt lat="48.38369" lon="2.51778">
        <ele>83</ele>
        <time>2007-08-18T10:13:59Z</time>
      </trkpt>
      <trkpt lat="48.38382" lon="2.5177">
        <ele>81</ele>
        <time>2007-08-18T10:14:23Z</time>
      </trkpt>
      <trkpt lat="48.38396" lon="2.51763">
        <ele>80</ele>
        <time>2007-08-18T10:14:43Z</time>
      </trkpt>
      <trkpt lat="48.38405" lon="2.51779">
        <ele>81</ele>
        <time>2007-08-18T10:15:15Z</time>
      </trkpt>
      <trkpt lat="48.38415" lon="2.51799">
        <ele>83</ele>
        <time>2007-08-18T10:15:32Z</time>
      </trkpt>
      <trkpt lat="48.38426" lon="2.51812">
        <ele>85</ele>
        <time>2007-08-18T10:15:51Z</time>
      </trkpt>
      <trkpt lat="48.38439" lon="2.51821">
        <ele>88</ele>
        <time>2007-08-18T10:16:08Z</time>
      </trkpt>
      <trkpt lat="48.38453" lon="2.51829">
        <ele>91</ele>
        <time>2007-08-18T10:16:28Z</time>
      </trkpt>
      <trkpt lat="48.38465" lon="2.51839">
        <ele>94</ele>
        <time>2007-08-18T10:16:48Z</time>
      </trkpt>
      <trkpt lat="48.38472" lon="2.51857">
        <ele>94</ele>
        <time>2007-08-18T10:17:05Z</time>
      </trkpt>
      <trkpt lat="48.38475" lon="2.51878">
        <ele>94</ele>
        <time>2007-08-18T10:17:27Z</time>
      </trkpt>
      <trkpt lat="48.38477" lon="2.51901">
        <ele>94</ele>
        <time>2007-08-18T10:17:49Z</time>
      </trkpt>
      <trkpt lat="48.3848" lon="2.51922">
        <ele>93</ele>
        <time>2007-08-18T10:18:11Z</time>
      </trkpt>
      <trkpt lat="48.38478" lon="2.51943">
        <ele>92</ele>
        <time>2007-08-18T10:18:39Z</time>
      </trkpt>
      <trkpt lat="48.38477" lon="2.51964">
        <ele>91</ele>
        <time>2007-08-18T10:18:59Z</time>
      </trkpt>
      <trkpt lat="48.38468" lon="2.51986">
        <ele>91</ele>
        <time>2007-08-18T10:19:16Z</time>
      </trkpt>
      <trkpt lat="48.3846" lon="2.52004">
        <ele>91</ele>
        <time>2007-08-18T10:19:33Z</time>
      </trkpt>
      <trkpt lat="48.3845" lon="2.52018">
        <ele>92</ele>
        <time>2007-08-18T10:19:46Z</time>
      </trkpt>
      <trkpt lat="48.38441" lon="2.52034">
        <ele>93</ele>
        <time>2007-08-18T10:19:59Z</time>
      </trkpt>
      <trkpt lat="48.38432" lon="2.52052">
        <ele>94</ele>
        <time>2007-08-18T10:20:20Z</time>
      </trkpt>
      <trkpt lat="48.38418" lon="2.5206">
        <ele>98</ele>
        <time>2007-08-18T10:20:38Z</time>
      </trkpt>
      <trkpt lat="48.38406" lon="2.52072">
        <ele>102</ele>
        <time>2007-08-18T10:21:00Z</time>
      </trkpt>
      <trkpt lat="48.38397" lon="2.52088">
        <ele>105</ele>
        <time>2007-08-18T10:21:30Z</time>
      </trkpt>
      <trkpt lat="48.38388" lon="2.52105">
        <ele>108</ele>
        <time>2007-08-18T10:22:04Z</time>
      </trkpt>
      <trkpt lat="48.38378" lon="2.52121">
        <ele>110</ele>
        <time>2007-08-18T10:22:21Z</time>
      </trkpt>
      <trkpt lat="48.38372" lon="2.52141">
        <ele>110</ele>
        <time>2007-08-18T10:22:34Z</time>
      </trkpt>
      <trkpt lat="48.38369" lon="2.52169">
        <ele>110</ele>
        <time>2007-08-18T10:22:54Z</time>
      </trkpt>
      <trkpt lat="48.38363" lon="2.52189">
        <ele>107</ele>
        <time>2007-08-18T10:23:13Z</time>
      </trkpt>
      <trkpt lat="48.38378" lon="2.52192">
        <ele>104</ele>
        <time>2007-08-18T10:23:30Z</time>
      </trkpt>
      <trkpt lat="48.38391" lon="2.52195">
        <ele>103</ele>
        <time>2007-08-18T10:23:47Z</time>
      </trkpt>
      <trkpt lat="48.384" lon="2.52211">
        <ele>100</ele>
        <time>2007-08-18T10:24:14Z</time>
      </trkpt>
      <trkpt lat="48.38403" lon="2.52232">
        <ele>97</ele>
        <time>2007-08-18T10:24:41Z</time>
      </trkpt>
      <trkpt lat="48.38402" lon="2.52253">
        <ele>94</ele>
        <time>2007-08-18T10:25:19Z</time>
      </trkpt>
      <trkpt lat="48.38412" lon="2.52268">
        <ele>96</ele>
        <time>2007-08-18T10:25:52Z</time>
      </trkpt>
      <trkpt lat="48.3842" lon="2.52286">
        <ele>96</ele>
        <time>2007-08-18T10:26:16Z</time>
      </trkpt>
      <trkpt lat="48.38433" lon="2.52294">
        <ele>99</ele>
        <time>2007-08-18T10:27:07Z</time>
      </trkpt>
      <trkpt lat="48.38447" lon="2.52301">
        <ele>100</ele>
        <time>2007-08-18T10:27:46Z</time>
      </trkpt>
      <trkpt lat="48.3846" lon="2.5231">
        <ele>99</ele>
        <time>2007-08-18T10:28:19Z</time>
      </trkpt>
      <trkpt lat="48.38471" lon="2.52324">
        <ele>96</ele>
        <time>2007-08-18T10:28:47Z</time>
      </trkpt>
      <trkpt lat="48.38484" lon="2.52325">
        <ele>95</ele>
        <time>2007-08-18T10:29:08Z</time>
      </trkpt>
      <trkpt lat="48.38498" lon="2.52322">
        <ele>94</ele>
        <time>2007-08-18T10:29:19Z</time>
      </trkpt>
      <trkpt lat="48.38511" lon="2.52315">
        <ele>93</ele>
        <time>2007-08-18T10:29:36Z</time>
      </trkpt>
      <trkpt lat="48.38525" lon="2.52313">
        <ele>91</ele>
        <time>2007-08-18T10:30:07Z</time>
      </trkpt>
      <trkpt lat="48.38538" lon="2.52309">
        <ele>90</ele>
        <time>2007-08-18T10:30:31Z</time>
      </trkpt>
      <trkpt lat="48.38552" lon="2.52303">
        <ele>88</ele>
        <time>2007-08-18T10:31:03Z</time>
      </trkpt>
      <trkpt lat="48.38564" lon="2.52291">
        <ele>87</ele>
        <time>2007-08-18T10:31:26Z</time>
      </trkpt>
      <trkpt lat="48.38577" lon="2.52297">
        <ele>85</ele>
        <time>2007-08-18T10:31:43Z</time>
      </trkpt>
      <trkpt lat="48.38591" lon="2.52306">
        <ele>82</ele>
        <time>2007-08-18T10:32:01Z</time>
      </trkpt>
      <trkpt lat="48.38606" lon="2.52316">
        <ele>78</ele>
        <time>2007-08-18T10:32:18Z</time>
      </trkpt>
      <trkpt lat="48.38621" lon="2.52313">
        <ele>76</ele>
        <time>2007-08-18T10:32:41Z</time>
      </trkpt>
      <trkpt lat="48.38634" lon="2.52312">
        <ele>75</ele>
        <time>2007-08-18T10:33:02Z</time>
      </trkpt>
      <trkpt lat="48.38648" lon="2.52312">
        <ele>73</ele>
        <time>2007-08-18T10:33:13Z</time>
      </trkpt>
      <trkpt lat="48.38663" lon="2.52316">
        <ele>72</ele>
        <time>2007-08-18T10:33:24Z</time>
      </trkpt>
      <trkpt lat="48.38684" lon="2.52316">
        <ele>74</ele>
        <time>2007-08-18T10:33:41Z</time>
      </trkpt>
      <trkpt lat="48.38697" lon="2.52327">
        <ele>75</ele>
        <time>2007-08-18T10:33:54Z</time>
      </trkpt>
      <trkpt lat="48.38712" lon="2.52327">
        <ele>76</ele>
        <time>2007-08-18T10:34:06Z</time>
      </trkpt>
      <trkpt lat="48.38726" lon="2.52327">
        <ele>79</ele>
        <time>2007-08-18T10:34:18Z</time>
      </trkpt>
      <trkpt lat="48.38739" lon="2.52318">
        <ele>81</ele>
        <time>2007-08-18T10:34:29Z</time>
      </trkpt>
      <trkpt lat="48.38751" lon="2.52307">
        <ele>84</ele>
        <time>2007-08-18T10:34:40Z</time>
      </trkpt>
      <trkpt lat="48.38762" lon="2.52286">
        <ele>87</ele>
        <time>2007-08-18T10:34:59Z</time>
      </trkpt>
      <trkpt lat="48.38771" lon="2.52267">
        <ele>90</ele>
        <time>2007-08-18T10:35:16Z</time>
      </trkpt>
      <trkpt lat="48.38787" lon="2.52256">
        <ele>95</ele>
        <time>2007-08-18T10:35:33Z</time>
      </trkpt>
      <trkpt lat="48.38798" lon="2.5227">
        <ele>98</ele>
        <time>2007-08-18T10:35:53Z</time>
      </trkpt>
      <trkpt lat="48.38811" lon="2.52273">
        <ele>102</ele>
        <time>2007-08-18T10:36:11Z</time>
      </trkpt>
      <trkpt lat="48.38825" lon="2.52276">
        <ele>107</ele>
        <time>2007-08-18T10:36:29Z</time>
      </trkpt>
      <trkpt lat="48.38838" lon="2.52276">
        <ele>111</ele>
        <time>2007-08-18T10:36:57Z</time>
      </trkpt>
      <trkpt lat="48.38852" lon="2.52273">
        <ele>114</ele>
        <time>2007-08-18T10:37:20Z</time>
      </trkpt>
      <trkpt lat="48.38865" lon="2.52274">
        <ele>116</ele>
        <time>2007-08-18T10:37:47Z</time>
      </trkpt>
      <trkpt lat="48.38877" lon="2.52285">
        <ele>118</ele>
        <time>2007-08-18T10:38:13Z</time>
      </trkpt>
      <trkpt lat="48.38891" lon="2.52282">
        <ele>118</ele>
        <time>2007-08-18T10:38:25Z</time>
      </trkpt>
      <trkpt lat="48.38904" lon="2.52283">
        <ele>116</ele>
        <time>2007-08-18T10:38:38Z</time>
      </trkpt>
      <trkpt lat="48.38919" lon="2.52279">
        <ele>113</ele>
        <time>2007-08-18T10:38:55Z</time>
      </trkpt>
      <trkpt lat="48.3893" lon="2.52264">
        <ele>110</ele>
        <time>2007-08-18T10:39:14Z</time>
      </trkpt>
      <trkpt lat="48.38933" lon="2.52243">
        <ele>107</ele>
        <time>2007-08-18T10:39:38Z</time>
      </trkpt>
      <trkpt lat="48.38937" lon="2.52223">
        <ele>104</ele>
        <time>2007-08-18T10:40:01Z</time>
      </trkpt>
      <trkpt lat="48.38934" lon="2.52202">
        <ele>103</ele>
        <time>2007-08-18T10:40:23Z</time>
      </trkpt>
      <trkpt lat="48.38936" lon="2.52181">
        <ele>102</ele>
        <time>2007-08-18T10:40:40Z</time>
      </trkpt>
      <trkpt lat="48.38943" lon="2.5216">
        <ele>97</ele>
        <time>2007-08-18T10:40:57Z</time>
      </trkpt>
      <trkpt lat="48.38955" lon="2.5215">
        <ele>93</ele>
        <time>2007-08-18T10:41:09Z</time>
      </trkpt>
      <trkpt lat="48.38957" lon="2.52129">
        <ele>90</ele>
        <time>2007-08-18T10:41:30Z</time>
      </trkpt>
      <trkpt lat="48.38961" lon="2.52106">
        <ele>87</ele>
        <time>2007-08-18T10:41:47Z</time>
      </trkpt>
      <trkpt lat="48.38972" lon="2.5209">
        <ele>84</ele>
        <time>2007-08-18T10:42:00Z</time>
      </trkpt>
      <trkpt lat="48.38979" lon="2.5207">
        <ele>81</ele>
        <time>2007-08-18T10:42:11Z</time>
      </trkpt>
      <trkpt lat="48.38991" lon="2.52058">
        <ele>79</ele>
        <time>2007-08-18T10:42:24Z</time>
      </trkpt>
      <trkpt lat="48.39006" lon="2.52043">
        <ele>77</ele>
        <time>2007-08-18T10:42:41Z</time>
      </trkpt>
      <trkpt lat="48.39023" lon="2.52046">
        <ele>76</ele>
        <time>2007-08-18T10:42:58Z</time>
      </trkpt>
      <trkpt lat="48.39036" lon="2.52046">
        <ele>76</ele>
        <time>2007-08-18T10:43:09Z</time>
      </trkpt>
      <trkpt lat="48.3905" lon="2.52043">
        <ele>76</ele>
        <time>2007-08-18T10:43:19Z</time>
      </trkpt>
      <trkpt lat="48.39063" lon="2.52045">
        <ele>76</ele>
        <time>2007-08-18T10:43:30Z</time>
      </trkpt>
      <trkpt lat="48.39083" lon="2.52055">
        <ele>77</ele>
        <time>2007-08-18T10:43:47Z</time>
      </trkpt>
      <trkpt lat="48.39096" lon="2.52055">
        <ele>77</ele>
        <time>2007-08-18T10:43:57Z</time>
      </trkpt>
      <trkpt lat="48.3911" lon="2.52057">
        <ele>78</ele>
        <time>2007-08-18T10:44:09Z</time>
      </trkpt>
      <trkpt lat="48.39123" lon="2.52066">
        <ele>78</ele>
        <time>2007-08-18T10:44:21Z</time>
      </trkpt>
      <trkpt lat="48.39135" lon="2.52076">
        <ele>79</ele>
        <time>2007-08-18T10:44:34Z</time>
      </trkpt>
      <trkpt lat="48.39152" lon="2.52088">
        <ele>79</ele>
        <time>2007-08-18T10:44:51Z</time>
      </trkpt>
      <trkpt lat="48.39161" lon="2.52105">
        <ele>79</ele>
        <time>2007-08-18T10:45:04Z</time>
      </trkpt>
      <trkpt lat="48.39174" lon="2.52115">
        <ele>80</ele>
        <time>2007-08-18T10:45:17Z</time>
      </trkpt>
      <trkpt lat="48.39188" lon="2.52114">
        <ele>81</ele>
        <time>2007-08-18T10:45:29Z</time>
      </trkpt>
      <trkpt lat="48.39203" lon="2.521">
        <ele>82</ele>
        <time>2007-08-18T10:45:46Z</time>
      </trkpt>
      <trkpt lat="48.39213" lon="2.52082">
        <ele>84</ele>
        <time>2007-08-18T10:46:03Z</time>
      </trkpt>
      <trkpt lat="48.39227" lon="2.52064">
        <ele>87</ele>
        <time>2007-08-18T10:46:20Z</time>
      </trkpt>
      <trkpt lat="48.39239" lon="2.52054">
        <ele>90</ele>
        <time>2007-08-18T10:46:32Z</time>
      </trkpt>
      <trkpt lat="48.39246" lon="2.5203">
        <ele>92</ele>
        <time>2007-08-18T10:46:49Z</time>
      </trkpt>
      <trkpt lat="48.39254" lon="2.52012">
        <ele>93</ele>
        <time>2007-08-18T10:47:00Z</time>
      </trkpt>
      <trkpt lat="48.39258" lon="2.51989">
        <ele>94</ele>
        <time>2007-08-18T10:48:11Z</time>
      </trkpt>
      <trkpt lat="48.39267" lon="2.5197">
        <ele>95</ele>
        <time>2007-08-18T10:48:28Z</time>
      </trkpt>
      <trkpt lat="48.39279" lon="2.51952">
        <ele>96</ele>
        <time>2007-08-18T10:48:45Z</time>
      </trkpt>
      <trkpt lat="48.3929" lon="2.51937">
        <ele>96</ele>
        <time>2007-08-18T10:48:57Z</time>
      </trkpt>
      <trkpt lat="48.39302" lon="2.51925">
        <ele>97</ele>
        <time>2007-08-18T10:49:09Z</time>
      </trkpt>
      <trkpt lat="48.39315" lon="2.5191">
        <ele>100</ele>
        <time>2007-08-18T10:49:26Z</time>
      </trkpt>
      <trkpt lat="48.39329" lon="2.51902">
        <ele>103</ele>
        <time>2007-08-18T10:49:37Z</time>
      </trkpt>
      <trkpt lat="48.39342" lon="2.51898">
        <ele>106</ele>
        <time>2007-08-18T10:49:49Z</time>
      </trkpt>
      <trkpt lat="48.3935" lon="2.51878">
        <ele>107</ele>
        <time>2007-08-18T10:50:02Z</time>
      </trkpt>
      <trkpt lat="48.39354" lon="2.51859">
        <ele>108</ele>
        <time>2007-08-18T10:50:13Z</time>
      </trkpt>
      <trkpt lat="48.39366" lon="2.51836">
        <ele>110</ele>
        <time>2007-08-18T10:50:30Z</time>
      </trkpt>
      <trkpt lat="48.39374" lon="2.51818">
        <ele>110</ele>
        <time>2007-08-18T10:50:42Z</time>
      </trkpt>
      <trkpt lat="48.39384" lon="2.518">
        <ele>109</ele>
        <time>2007-08-18T10:50:59Z</time>
      </trkpt>
      <trkpt lat="48.39395" lon="2.51787">
        <ele>107</ele>
        <time>2007-08-18T10:51:10Z</time>
      </trkpt>
      <trkpt lat="48.39399" lon="2.51767">
        <ele>105</ele>
        <time>2007-08-18T10:51:22Z</time>
      </trkpt>
      <trkpt lat="48.39405" lon="2.51742">
        <ele>101</ele>
        <time>2007-08-18T10:51:39Z</time>
      </trkpt>
      <trkpt lat="48.39416" lon="2.51728">
        <ele>100</ele>
        <time>2007-08-18T10:51:50Z</time>
      </trkpt>
      <trkpt lat="48.39429" lon="2.51721">
        <ele>99</ele>
        <time>2007-08-18T10:52:07Z</time>
      </trkpt>
      <trkpt lat="48.39441" lon="2.5171">
        <ele>96</ele>
        <time>2007-08-18T10:52:19Z</time>
      </trkpt>
      <trkpt lat="48.39456" lon="2.51707">
        <ele>94</ele>
        <time>2007-08-18T10:52:36Z</time>
      </trkpt>
      <trkpt lat="48.39449" lon="2.51725">
        <ele>96</ele>
        <time>2007-08-18T10:52:58Z</time>
      </trkpt>
      <trkpt lat="48.39443" lon="2.51746">
        <ele>99</ele>
        <time>2007-08-18T10:53:11Z</time>
      </trkpt>
      <trkpt lat="48.39435" lon="2.51767">
        <ele>102</ele>
        <time>2007-08-18T10:53:28Z</time>
      </trkpt>
      <trkpt lat="48.39428" lon="2.5179">
        <ele>104</ele>
        <time>2007-08-18T10:53:45Z</time>
      </trkpt>
      <trkpt lat="48.39429" lon="2.51811">
        <ele>104</ele>
        <time>2007-08-18T10:54:02Z</time>
      </trkpt>
      <trkpt lat="48.39429" lon="2.51832">
        <ele>105</ele>
        <time>2007-08-18T10:54:20Z</time>
      </trkpt>
      <trkpt lat="48.39422" lon="2.5185">
        <ele>106</ele>
        <time>2007-08-18T10:54:37Z</time>
      </trkpt>
      <trkpt lat="48.39417" lon="2.51871">
        <ele>106</ele>
        <time>2007-08-18T10:54:49Z</time>
      </trkpt>
      <trkpt lat="48.39411" lon="2.51898">
        <ele>106</ele>
        <time>2007-08-18T10:55:06Z</time>
      </trkpt>
      <trkpt lat="48.39405" lon="2.51917">
        <ele>107</ele>
        <time>2007-08-18T10:55:19Z</time>
      </trkpt>
      <trkpt lat="48.39402" lon="2.51938">
        <ele>108</ele>
        <time>2007-08-18T10:55:31Z</time>
      </trkpt>
      <trkpt lat="48.39399" lon="2.51962">
        <ele>109</ele>
        <time>2007-08-18T10:55:43Z</time>
      </trkpt>
      <trkpt lat="48.39401" lon="2.51983">
        <ele>109</ele>
        <time>2007-08-18T10:55:55Z</time>
      </trkpt>
      <trkpt lat="48.39395" lon="2.52003">
        <ele>110</ele>
        <time>2007-08-18T10:56:07Z</time>
      </trkpt>
      <trkpt lat="48.3939" lon="2.52022">
        <ele>110</ele>
        <time>2007-08-18T10:56:19Z</time>
      </trkpt>
      <trkpt lat="48.39383" lon="2.52042">
        <ele>111</ele>
        <time>2007-08-18T10:56:30Z</time>
      </trkpt>
      <trkpt lat="48.39375" lon="2.5206">
        <ele>111</ele>
        <time>2007-08-18T10:56:43Z</time>
      </trkpt>
      <trkpt lat="48.39366" lon="2.52076">
        <ele>109</ele>
        <time>2007-08-18T10:56:56Z</time>
      </trkpt>
      <trkpt lat="48.39365" lon="2.52106">
        <ele>109</ele>
        <time>2007-08-18T10:57:14Z</time>
      </trkpt>
      <trkpt lat="48.39354" lon="2.52126">
        <ele>108</ele>
        <time>2007-08-18T10:57:31Z</time>
      </trkpt>
      <trkpt lat="48.39347" lon="2.52144">
        <ele>107</ele>
        <time>2007-08-18T10:57:49Z</time>
      </trkpt>
      <trkpt lat="48.39342" lon="2.52163">
        <ele>107</ele>
        <time>2007-08-18T10:58:00Z</time>
      </trkpt>
      <trkpt lat="48.39339" lon="2.52184">
        <ele>108</ele>
        <time>2007-08-18T10:58:18Z</time>
      </trkpt>
      <trkpt lat="48.39329" lon="2.52199">
        <ele>107</ele>
        <time>2007-08-18T10:58:35Z</time>
      </trkpt>
      <trkpt lat="48.3932" lon="2.52217">
        <ele>105</ele>
        <time>2007-08-18T10:58:58Z</time>
      </trkpt>
      <trkpt lat="48.39306" lon="2.52225">
        <ele>100</ele>
        <time>2007-08-18T10:59:16Z</time>
      </trkpt>
      <trkpt lat="48.39294" lon="2.52213">
        <ele>95</ele>
        <time>2007-08-18T10:59:34Z</time>
      </trkpt>
      <trkpt lat="48.39281" lon="2.52204">
        <ele>92</ele>
        <time>2007-08-18T10:59:53Z</time>
      </trkpt>
      <trkpt lat="48.39267" lon="2.52205">
        <ele>90</ele>
        <time>2007-08-18T11:00:10Z</time>
      </trkpt>
      <trkpt lat="48.39257" lon="2.52225">
        <ele>89</ele>
        <time>2007-08-18T11:00:27Z</time>
      </trkpt>
      <trkpt lat="48.39245" lon="2.52238">
        <ele>89</ele>
        <time>2007-08-18T11:00:46Z</time>
      </trkpt>
      <trkpt lat="48.39251" lon="2.52258">
        <ele>90</ele>
        <time>2007-08-18T11:01:14Z</time>
      </trkpt>
      <trkpt lat="48.39245" lon="2.52277">
        <ele>90</ele>
        <time>2007-08-18T11:01:42Z</time>
      </trkpt>
      <trkpt lat="48.39234" lon="2.52291">
        <ele>94</ele>
        <time>2007-08-18T11:02:06Z</time>
      </trkpt>
      <trkpt lat="48.39234" lon="2.52312">
        <ele>95</ele>
        <time>2007-08-18T11:02:27Z</time>
      </trkpt>
      <trkpt lat="48.39228" lon="2.52331">
        <ele>96</ele>
        <time>2007-08-18T11:02:47Z</time>
      </trkpt>
      <trkpt lat="48.39218" lon="2.52345">
        <ele>99</ele>
        <time>2007-08-18T11:03:10Z</time>
      </trkpt>
      <trkpt lat="48.39203" lon="2.52351">
        <ele>103</ele>
        <time>2007-08-18T11:03:36Z</time>
      </trkpt>
      <trkpt lat="48.39189" lon="2.52352">
        <ele>106</ele>
        <time>2007-08-18T11:03:49Z</time>
      </trkpt>
      <trkpt lat="48.39177" lon="2.52372">
        <ele>108</ele>
        <time>2007-08-18T11:04:06Z</time>
      </trkpt>
      <trkpt lat="48.39164" lon="2.52385">
        <ele>112</ele>
        <time>2007-08-18T11:04:23Z</time>
      </trkpt>
      <trkpt lat="48.39152" lon="2.52396">
        <ele>115</ele>
        <time>2007-08-18T11:04:40Z</time>
      </trkpt>
      <trkpt lat="48.39143" lon="2.52412">
        <ele>116</ele>
        <time>2007-08-18T11:04:52Z</time>
      </trkpt>
      <trkpt lat="48.3914" lon="2.52438">
        <ele>116</ele>
        <time>2007-08-18T11:05:09Z</time>
      </trkpt>
      <trkpt lat="48.39143" lon="2.52459">
        <ele>114</ele>
        <time>2007-08-18T11:05:21Z</time>
      </trkpt>
      <trkpt lat="48.39141" lon="2.5248">
        <ele>112</ele>
        <time>2007-08-18T11:05:34Z</time>
      </trkpt>
      <trkpt lat="48.39128" lon="2.52487">
        <ele>114</ele>
        <time>2007-08-18T11:05:47Z</time>
      </trkpt>
      <trkpt lat="48.39122" lon="2.52511">
        <ele>112</ele>
        <time>2007-08-18T11:06:04Z</time>
      </trkpt>
      <trkpt lat="48.39111" lon="2.52526">
        <ele>114</ele>
        <time>2007-08-18T11:06:17Z</time>
      </trkpt>
      <trkpt lat="48.39101" lon="2.52543">
        <ele>115</ele>
        <time>2007-08-18T11:06:29Z</time>
      </trkpt>
      <trkpt lat="48.3909" lon="2.52558">
        <ele>117</ele>
        <time>2007-08-18T11:06:39Z</time>
      </trkpt>
      <trkpt lat="48.39081" lon="2.52576">
        <ele>118</ele>
        <time>2007-08-18T11:06:51Z</time>
      </trkpt>
      <trkpt lat="48.39074" lon="2.52595">
        <ele>120</ele>
        <time>2007-08-18T11:07:04Z</time>
      </trkpt>
      <trkpt lat="48.3906" lon="2.52612">
        <ele>122</ele>
        <time>2007-08-18T11:07:21Z</time>
      </trkpt>
      <trkpt lat="48.39044" lon="2.52604">
        <ele>122</ele>
        <time>2007-08-18T11:07:38Z</time>
      </trkpt>
      <trkpt lat="48.3903" lon="2.52604">
        <ele>122</ele>
        <time>2007-08-18T11:07:51Z</time>
      </trkpt>
      <trkpt lat="48.39021" lon="2.52622">
        <ele>122</ele>
        <time>2007-08-18T11:08:03Z</time>
      </trkpt>
      <trkpt lat="48.39017" lon="2.52642">
        <ele>122</ele>
        <time>2007-08-18T11:08:13Z</time>
      </trkpt>
      <trkpt lat="48.3902" lon="2.52663">
        <ele>121</ele>
        <time>2007-08-18T11:08:26Z</time>
      </trkpt>
      <trkpt lat="48.39021" lon="2.52685">
        <ele>119</ele>
        <time>2007-08-18T11:08:39Z</time>
      </trkpt>
      <trkpt lat="48.39021" lon="2.52706">
        <ele>117</ele>
        <time>2007-08-18T11:08:52Z</time>
      </trkpt>
      <trkpt lat="48.39021" lon="2.52727">
        <ele>114</ele>
        <time>2007-08-18T11:09:11Z</time>
      </trkpt>
      <trkpt lat="48.39027" lon="2.52747">
        <ele>111</ele>
        <time>2007-08-18T11:09:32Z</time>
      </trkpt>
      <trkpt lat="48.3903" lon="2.52768">
        <ele>109</ele>
        <time>2007-08-18T11:09:51Z</time>
      </trkpt>
      <trkpt lat="48.39036" lon="2.52787">
        <ele>108</ele>
        <time>2007-08-18T11:10:04Z</time>
      </trkpt>
      <trkpt lat="48.39029" lon="2.52805">
        <ele>105</ele>
        <time>2007-08-18T11:10:17Z</time>
      </trkpt>
      <trkpt lat="48.39024" lon="2.52826">
        <ele>102</ele>
        <time>2007-08-18T11:10:29Z</time>
      </trkpt>
      <trkpt lat="48.39017" lon="2.5285">
        <ele>98</ele>
        <time>2007-08-18T11:10:46Z</time>
      </trkpt>
      <trkpt lat="48.39009" lon="2.52868">
        <ele>97</ele>
        <time>2007-08-18T11:10:58Z</time>
      </trkpt>
      <trkpt lat="48.39" lon="2.52885">
        <ele>96</ele>
        <time>2007-08-18T11:11:11Z</time>
      </trkpt>
      <trkpt lat="48.38988" lon="2.52895">
        <ele>93</ele>
        <time>2007-08-18T11:11:29Z</time>
      </trkpt>
      <trkpt lat="48.38975" lon="2.52895">
        <ele>89</ele>
        <time>2007-08-18T11:11:40Z</time>
      </trkpt>
      <trkpt lat="48.38957" lon="2.529">
        <ele>89</ele>
        <time>2007-08-18T11:11:57Z</time>
      </trkpt>
      <trkpt lat="48.38943" lon="2.52906">
        <ele>88</ele>
        <time>2007-08-18T11:12:08Z</time>
      </trkpt>
      <trkpt lat="48.38928" lon="2.52915">
        <ele>87</ele>
        <time>2007-08-18T11:12:25Z</time>
      </trkpt>
      <trkpt lat="48.38916" lon="2.52927">
        <ele>88</ele>
        <time>2007-08-18T11:12:37Z</time>
      </trkpt>
      <trkpt lat="48.38904" lon="2.52942">
        <ele>89</ele>
        <time>2007-08-18T11:12:55Z</time>
      </trkpt>
      <trkpt lat="48.38897" lon="2.5296">
        <ele>90</ele>
        <time>2007-08-18T11:13:25Z</time>
      </trkpt>
      <trkpt lat="48.38886" lon="2.52973">
        <ele>92</ele>
        <time>2007-08-18T11:14:02Z</time>
      </trkpt>
      <trkpt lat="48.38876" lon="2.52987">
        <ele>94</ele>
        <time>2007-08-18T11:14:44Z</time>
      </trkpt>
      <trkpt lat="48.38874" lon="2.53008">
        <ele>91</ele>
        <time>2007-08-18T11:15:30Z</time>
      </trkpt>
      <trkpt lat="48.38882" lon="2.53027">
        <ele>87</ele>
        <time>2007-08-18T11:15:56Z</time>
      </trkpt>
      <trkpt lat="48.38895" lon="2.53038">
        <ele>85</ele>
        <time>2007-08-18T11:16:20Z</time>
      </trkpt>
      <trkpt lat="48.38906" lon="2.53051">
        <ele>84</ele>
        <time>2007-08-18T11:16:43Z</time>
      </trkpt>
      <trkpt lat="48.38918" lon="2.53065">
        <ele>87</ele>
        <time>2007-08-18T11:17:02Z</time>
      </trkpt>
      <trkpt lat="48.38928" lon="2.53078">
        <ele>92</ele>
        <time>2007-08-18T11:17:15Z</time>
      </trkpt>
      <trkpt lat="48.38937" lon="2.53098">
        <ele>98</ele>
        <time>2007-08-18T11:17:28Z</time>
      </trkpt>
      <trkpt lat="48.3894" lon="2.53119">
        <ele>105</ele>
        <time>2007-08-18T11:17:51Z</time>
      </trkpt>
      <trkpt lat="48.3894" lon="2.5314">
        <ele>106</ele>
        <time>2007-08-18T11:18:24Z</time>
      </trkpt>
      <trkpt lat="48.38945" lon="2.53159">
        <ele>107</ele>
        <time>2007-08-18T11:18:50Z</time>
      </trkpt>
      <trkpt lat="48.38946" lon="2.53182">
        <ele>107</ele>
        <time>2007-08-18T11:19:21Z</time>
      </trkpt>
      <trkpt lat="48.38955" lon="2.53198">
        <ele>106</ele>
        <time>2007-08-18T11:19:42Z</time>
      </trkpt>
      <trkpt lat="48.38969" lon="2.53218">
        <ele>107</ele>
        <time>2007-08-18T11:19:59Z</time>
      </trkpt>
      <trkpt lat="48.38975" lon="2.53242">
        <ele>106</ele>
        <time>2007-08-18T11:20:16Z</time>
      </trkpt>
      <trkpt lat="48.38978" lon="2.53263">
        <ele>107</ele>
        <time>2007-08-18T11:20:40Z</time>
      </trkpt>
      <trkpt lat="48.38987" lon="2.53279">
        <ele>110</ele>
        <time>2007-08-18T11:21:04Z</time>
      </trkpt>
      <trkpt lat="48.39" lon="2.53281">
        <ele>113</ele>
        <time>2007-08-18T11:21:45Z</time>
      </trkpt>
      <trkpt lat="48.39005" lon="2.533">
        <ele>115</ele>
        <time>2007-08-18T11:22:16Z</time>
      </trkpt>
      <trkpt lat="48.39018" lon="2.53308">
        <ele>118</ele>
        <time>2007-08-18T11:22:34Z</time>
      </trkpt>
      <trkpt lat="48.39024" lon="2.53327">
        <ele>120</ele>
        <time>2007-08-18T11:23:08Z</time>
      </trkpt>
      <trkpt lat="48.39023" lon="2.53348">
        <ele>120</ele>
        <time>2007-08-18T11:23:36Z</time>
      </trkpt>
      <trkpt lat="48.3902" lon="2.53371">
        <ele>119</ele>
        <time>2007-08-18T11:23:53Z</time>
      </trkpt>
      <trkpt lat="48.39017" lon="2.53393">
        <ele>119</ele>
        <time>2007-08-18T11:24:06Z</time>
      </trkpt>
      <trkpt lat="48.39024" lon="2.53413">
        <ele>119</ele>
        <time>2007-08-18T11:24:18Z</time>
      </trkpt>
      <trkpt lat="48.39035" lon="2.53431">
        <ele>119</ele>
        <time>2007-08-18T11:24:35Z</time>
      </trkpt>
      <trkpt lat="48.39041" lon="2.5345">
        <ele>119</ele>
        <time>2007-08-18T11:24:47Z</time>
      </trkpt>
      <trkpt lat="48.39045" lon="2.53471">
        <ele>120</ele>
        <time>2007-08-18T11:25:00Z</time>
      </trkpt>
      <trkpt lat="48.39035" lon="2.53492">
        <ele>120</ele>
        <time>2007-08-18T11:25:17Z</time>
      </trkpt>
      <trkpt lat="48.39024" lon="2.53513">
        <ele>120</ele>
        <time>2007-08-18T11:25:34Z</time>
      </trkpt>
      <trkpt lat="48.39014" lon="2.53527">
        <ele>121</ele>
        <time>2007-08-18T11:25:45Z</time>
      </trkpt>
      <trkpt lat="48.39006" lon="2.53545">
        <ele>121</ele>
        <time>2007-08-18T11:26:09Z</time>
      </trkpt>
      <trkpt lat="48.38993" lon="2.53543">
        <ele>120</ele>
        <time>2007-08-18T11:26:28Z</time>
      </trkpt>
      <trkpt lat="48.38981" lon="2.53554">
        <ele>120</ele>
        <time>2007-08-18T11:26:53Z</time>
      </trkpt>
      <trkpt lat="48.38972" lon="2.5357">
        <ele>121</ele>
        <time>2007-08-18T11:27:14Z</time>
      </trkpt>
      <trkpt lat="48.38964" lon="2.53588">
        <ele>122</ele>
        <time>2007-08-18T11:27:37Z</time>
      </trkpt>
      <trkpt lat="48.38951" lon="2.53599">
        <ele>122</ele>
        <time>2007-08-18T11:28:04Z</time>
      </trkpt>
      <trkpt lat="48.38939" lon="2.53609">
        <ele>122</ele>
        <time>2007-08-18T11:28:16Z</time>
      </trkpt>
      <trkpt lat="48.38924" lon="2.53614">
        <ele>122</ele>
        <time>2007-08-18T11:28:33Z</time>
      </trkpt>
      <trkpt lat="48.3891" lon="2.53626">
        <ele>122</ele>
        <time>2007-08-18T11:28:50Z</time>
      </trkpt>
      <trkpt lat="48.38895" lon="2.53638">
        <ele>121</ele>
        <time>2007-08-18T11:29:07Z</time>
      </trkpt>
      <trkpt lat="48.38883" lon="2.53627">
        <ele>121</ele>
        <time>2007-08-18T11:29:24Z</time>
      </trkpt>
      <trkpt lat="48.3887" lon="2.53633">
        <ele>121</ele>
        <time>2007-08-18T11:29:36Z</time>
      </trkpt>
      <trkpt lat="48.38861" lon="2.5365">
        <ele>121</ele>
        <time>2007-08-18T11:29:54Z</time>
      </trkpt>
      <trkpt lat="48.38849" lon="2.53663">
        <ele>122</ele>
        <time>2007-08-18T11:30:11Z</time>
      </trkpt>
      <trkpt lat="48.38835" lon="2.53666">
        <ele>122</ele>
        <time>2007-08-18T11:30:24Z</time>
      </trkpt>
      <trkpt lat="48.38823" lon="2.53653">
        <ele>120</ele>
        <time>2007-08-18T11:30:36Z</time>
      </trkpt>
      <trkpt lat="48.38813" lon="2.53638">
        <ele>119</ele>
        <time>2007-08-18T11:30:48Z</time>
      </trkpt>
      <trkpt lat="48.38799" lon="2.5363">
        <ele>118</ele>
        <time>2007-08-18T11:31:01Z</time>
      </trkpt>
      <trkpt lat="48.38786" lon="2.53626">
        <ele>116</ele>
        <time>2007-08-18T11:31:36Z</time>
      </trkpt>
      <trkpt lat="48.38774" lon="2.53638">
        <ele>112</ele>
        <time>2007-08-18T11:32:04Z</time>
      </trkpt>
      <trkpt lat="48.3876" lon="2.5363">
        <ele>109</ele>
        <time>2007-08-18T11:32:27Z</time>
      </trkpt>
      <trkpt lat="48.38747" lon="2.53639">
        <ele>104</ele>
        <time>2007-08-18T11:32:47Z</time>
      </trkpt>
      <trkpt lat="48.38733" lon="2.53644">
        <ele>100</ele>
        <time>2007-08-18T11:33:10Z</time>
      </trkpt>
      <trkpt lat="48.3872" lon="2.53641">
        <ele>96</ele>
        <time>2007-08-18T11:33:28Z</time>
      </trkpt>
      <trkpt lat="48.38706" lon="2.53632">
        <ele>92</ele>
        <time>2007-08-18T11:34:45Z</time>
      </trkpt>
      <trkpt lat="48.38699" lon="2.5365">
        <ele>91</ele>
        <time>2007-08-18T11:35:56Z</time>
      </trkpt>
      <trkpt lat="48.3869" lon="2.53666">
        <ele>93</ele>
        <time>2007-08-18T11:36:14Z</time>
      </trkpt>
      <trkpt lat="48.38684" lon="2.53686">
        <ele>96</ele>
        <time>2007-08-18T11:36:46Z</time>
      </trkpt>
      <trkpt lat="48.3867" lon="2.53683">
        <ele>98</ele>
        <time>2007-08-18T11:37:17Z</time>
      </trkpt>
      <trkpt lat="48.38664" lon="2.53702">
        <ele>100</ele>
        <time>2007-08-18T11:37:38Z</time>
      </trkpt>
      <trkpt lat="48.38663" lon="2.53725">
        <ele>101</ele>
        <time>2007-08-18T11:37:55Z</time>
      </trkpt>
      <trkpt lat="48.38649" lon="2.53732">
        <ele>104</ele>
        <time>2007-08-18T11:38:17Z</time>
      </trkpt>
      <trkpt lat="48.38636" lon="2.53743">
        <ele>106</ele>
        <time>2007-08-18T11:38:51Z</time>
      </trkpt>
      <trkpt lat="48.38622" lon="2.53752">
        <ele>108</ele>
        <time>2007-08-18T11:39:13Z</time>
      </trkpt>
      <trkpt lat="48.38609" lon="2.53758">
        <ele>109</ele>
        <time>2007-08-18T11:39:30Z</time>
      </trkpt>
      <trkpt lat="48.38598" lon="2.53771">
        <ele>110</ele>
        <time>2007-08-18T11:39:47Z</time>
      </trkpt>
      <trkpt lat="48.38586" lon="2.53783">
        <ele>111</ele>
        <time>2007-08-18T11:40:14Z</time>
      </trkpt>
      <trkpt lat="48.38574" lon="2.53801">
        <ele>112</ele>
        <time>2007-08-18T11:40:31Z</time>
      </trkpt>
      <trkpt lat="48.38562" lon="2.53812">
        <ele>113</ele>
        <time>2007-08-18T11:40:43Z</time>
      </trkpt>
      <trkpt lat="48.38552" lon="2.53827">
        <ele>114</ele>
        <time>2007-08-18T11:41:00Z</time>
      </trkpt>
      <trkpt lat="48.38538" lon="2.53833">
        <ele>116</ele>
        <time>2007-08-18T11:41:17Z</time>
      </trkpt>
      <trkpt lat="48.38525" lon="2.53825">
        <ele>118</ele>
        <time>2007-08-18T11:41:30Z</time>
      </trkpt>
      <trkpt lat="48.38511" lon="2.53825">
        <ele>118</ele>
        <time>2007-08-18T11:41:41Z</time>
      </trkpt>
      <trkpt lat="48.38498" lon="2.53819">
        <ele>118</ele>
        <time>2007-08-18T11:42:04Z</time>
      </trkpt>
      <trkpt lat="48.38486" lon="2.5383">
        <ele>118</ele>
        <time>2007-08-18T11:42:25Z</time>
      </trkpt>
      <trkpt lat="48.38483" lon="2.53851">
        <ele>118</ele>
        <time>2007-08-18T11:42:44Z</time>
      </trkpt>
      <trkpt lat="48.38472" lon="2.53864">
        <ele>117</ele>
        <time>2007-08-18T11:43:06Z</time>
      </trkpt>
      <trkpt lat="48.3846" lon="2.53878">
        <ele>115</ele>
        <time>2007-08-18T11:43:24Z</time>
      </trkpt>
      <trkpt lat="48.38463" lon="2.53899">
        <ele>116</ele>
        <time>2007-08-18T11:43:53Z</time>
      </trkpt>
      <trkpt lat="48.3846" lon="2.5392">
        <ele>116</ele>
        <time>2007-08-18T11:44:23Z</time>
      </trkpt>
      <trkpt lat="48.38468" lon="2.53938">
        <ele>118</ele>
        <time>2007-08-18T11:44:59Z</time>
      </trkpt>
      <trkpt lat="48.38465" lon="2.53959">
        <ele>118</ele>
        <time>2007-08-18T11:45:35Z</time>
      </trkpt>
      <trkpt lat="48.38451" lon="2.53968">
        <ele>117</ele>
        <time>2007-08-18T11:46:26Z</time>
      </trkpt>
      <trkpt lat="48.38459" lon="2.53987">
        <ele>118</ele>
        <time>2007-08-18T11:46:47Z</time>
      </trkpt>
      <trkpt lat="48.38451" lon="2.5401">
        <ele>118</ele>
        <time>2007-08-18T11:47:04Z</time>
      </trkpt>
      <trkpt lat="48.38439" lon="2.5402">
        <ele>117</ele>
        <time>2007-08-18T11:47:26Z</time>
      </trkpt>
      <trkpt lat="48.38447" lon="2.54038">
        <ele>116</ele>
        <time>2007-08-18T11:48:34Z</time>
      </trkpt>
      <trkpt lat="48.38453" lon="2.54061">
        <ele>115</ele>
        <time>2007-08-18T11:48:51Z</time>
      </trkpt>
      <trkpt lat="48.38451" lon="2.54082">
        <ele>114</ele>
        <time>2007-08-18T11:49:03Z</time>
      </trkpt>
      <trkpt lat="48.38447" lon="2.54103">
        <ele>112</ele>
        <time>2007-08-18T11:49:20Z</time>
      </trkpt>
      <trkpt lat="48.38447" lon="2.54124">
        <ele>110</ele>
        <time>2007-08-18T11:49:47Z</time>
      </trkpt>
      <trkpt lat="48.38454" lon="2.54145">
        <ele>111</ele>
        <time>2007-08-18T11:50:04Z</time>
      </trkpt>
      <trkpt lat="48.38444" lon="2.54158">
        <ele>110</ele>
        <time>2007-08-18T11:50:24Z</time>
      </trkpt>
      <trkpt lat="48.38432" lon="2.54169">
        <ele>109</ele>
        <time>2007-08-18T11:50:44Z</time>
      </trkpt>
      <trkpt lat="48.38421" lon="2.54188">
        <ele>106</ele>
        <time>2007-08-18T11:51:01Z</time>
      </trkpt>
      <trkpt lat="48.38408" lon="2.54197">
        <ele>103</ele>
        <time>2007-08-18T11:51:14Z</time>
      </trkpt>
      <trkpt lat="48.384" lon="2.54215">
        <ele>102</ele>
        <time>2007-08-18T11:51:26Z</time>
      </trkpt>
      <trkpt lat="48.38396" lon="2.54235">
        <ele>102</ele>
        <time>2007-08-18T11:51:38Z</time>
      </trkpt>
      <trkpt lat="48.38396" lon="2.54256">
        <ele>103</ele>
        <time>2007-08-18T11:51:55Z</time>
      </trkpt>
      <trkpt lat="48.3839" lon="2.54275">
        <ele>104</ele>
        <time>2007-08-18T11:52:14Z</time>
      </trkpt>
      <trkpt lat="48.38376" lon="2.54283">
        <ele>106</ele>
        <time>2007-08-18T11:52:48Z</time>
      </trkpt>
      <trkpt lat="48.38364" lon="2.54293">
        <ele>110</ele>
        <time>2007-08-18T11:53:45Z</time>
      </trkpt>
      <trkpt lat="48.38358" lon="2.54313">
        <ele>112</ele>
        <time>2007-08-18T11:55:06Z</time>
      </trkpt>
      <trkpt lat="48.38352" lon="2.54335">
        <ele>114</ele>
        <time>2007-08-18T11:55:23Z</time>
      </trkpt>
      <trkpt lat="48.38351" lon="2.54356">
        <ele>114</ele>
        <time>2007-08-18T11:55:52Z</time>
      </trkpt>
      <trkpt lat="48.38342" lon="2.54377">
        <ele>115</ele>
        <time>2007-08-18T11:56:09Z</time>
      </trkpt>
      <trkpt lat="48.3833" lon="2.54388">
        <ele>113</ele>
        <time>2007-08-18T11:56:33Z</time>
      </trkpt>
      <trkpt lat="48.38321" lon="2.54404">
        <ele>111</ele>
        <time>2007-08-18T11:56:51Z</time>
      </trkpt>
      <trkpt lat="48.38318" lon="2.54425">
        <ele>110</ele>
        <time>2007-08-18T11:57:32Z</time>
      </trkpt>
      <trkpt lat="48.38313" lon="2.54445">
        <ele>109</ele>
        <time>2007-08-18T11:57:58Z</time>
      </trkpt>
      <trkpt lat="48.38306" lon="2.54464">
        <ele>107</ele>
        <time>2007-08-18T11:58:16Z</time>
      </trkpt>
      <trkpt lat="48.38301" lon="2.5449">
        <ele>109</ele>
        <time>2007-08-18T11:58:33Z</time>
      </trkpt>
      <trkpt lat="48.38309" lon="2.54509">
        <ele>112</ele>
        <time>2007-08-18T11:58:53Z</time>
      </trkpt>
      <trkpt lat="48.38295" lon="2.54517">
        <ele>112</ele>
        <time>2007-08-18T11:59:14Z</time>
      </trkpt>
      <trkpt lat="48.38289" lon="2.54536">
        <ele>115</ele>
        <time>2007-08-18T11:59:33Z</time>
      </trkpt>
      <trkpt lat="48.38286" lon="2.54557">
        <ele>115</ele>
        <time>2007-08-18T11:59:59Z</time>
      </trkpt>
      <trkpt lat="48.38274" lon="2.54569">
        <ele>115</ele>
        <time>2007-08-18T12:00:11Z</time>
      </trkpt>
      <trkpt lat="48.38261" lon="2.54572">
        <ele>115</ele>
        <time>2007-08-18T12:00:24Z</time>
      </trkpt>
      <trkpt lat="48.38247" lon="2.54571">
        <ele>115</ele>
        <time>2007-08-18T12:00:35Z</time>
      </trkpt>
      <trkpt lat="48.38232" lon="2.54574">
        <ele>115</ele>
        <time>2007-08-18T12:00:52Z</time>
      </trkpt>
      <trkpt lat="48.38219" lon="2.54572">
        <ele>115</ele>
        <time>2007-08-18T12:01:09Z</time>
      </trkpt>
      <trkpt lat="48.38205" lon="2.54569">
        <ele>115</ele>
        <time>2007-08-18T12:01:26Z</time>
      </trkpt>
      <trkpt lat="48.38192" lon="2.54566">
        <ele>114</ele>
        <time>2007-08-18T12:01:50Z</time>
      </trkpt>
      <trkpt lat="48.38183" lon="2.54586">
        <ele>114</ele>
        <time>2007-08-18T12:02:13Z</time>
      </trkpt>
      <trkpt lat="48.3818" lon="2.54607">
        <ele>114</ele>
        <time>2007-08-18T12:02:44Z</time>
      </trkpt>
      <trkpt lat="48.38175" lon="2.54629">
        <ele>112</ele>
        <time>2007-08-18T12:03:03Z</time>
      </trkpt>
      <trkpt lat="48.38169" lon="2.5465">
        <ele>109</ele>
        <time>2007-08-18T12:03:20Z</time>
      </trkpt>
      <trkpt lat="48.38159" lon="2.54665">
        <ele>107</ele>
        <time>2007-08-18T12:03:37Z</time>
      </trkpt>
      <trkpt lat="48.38154" lon="2.54685">
        <ele>106</ele>
        <time>2007-08-18T12:04:07Z</time>
      </trkpt>
      <trkpt lat="48.38141" lon="2.54691">
        <ele>106</ele>
        <time>2007-08-18T12:04:25Z</time>
      </trkpt>
      <trkpt lat="48.38127" lon="2.547">
        <ele>106</ele>
        <time>2007-08-18T12:04:53Z</time>
      </trkpt>
      <trkpt lat="48.38114" lon="2.54706">
        <ele>106</ele>
        <time>2007-08-18T12:05:11Z</time>
      </trkpt>
      <trkpt lat="48.381" lon="2.547">
        <ele>108</ele>
        <time>2007-08-18T12:05:39Z</time>
      </trkpt>
      <trkpt lat="48.38087" lon="2.54698">
        <ele>111</ele>
        <time>2007-08-18T12:05:51Z</time>
      </trkpt>
      <trkpt lat="48.38073" lon="2.54692">
        <ele>114</ele>
        <time>2007-08-18T12:06:02Z</time>
      </trkpt>
      <trkpt lat="48.38061" lon="2.54682">
        <ele>114</ele>
        <time>2007-08-18T12:06:37Z</time>
      </trkpt>
      <trkpt lat="48.38064" lon="2.54661">
        <ele>115</ele>
        <time>2007-08-18T12:06:59Z</time>
      </trkpt>
      <trkpt lat="48.38055" lon="2.54644">
        <ele>114</ele>
        <time>2007-08-18T12:07:26Z</time>
      </trkpt>
      <trkpt lat="48.38042" lon="2.54641">
        <ele>112</ele>
        <time>2007-08-18T12:07:55Z</time>
      </trkpt>
      <trkpt lat="48.38028" lon="2.54638">
        <ele>109</ele>
        <time>2007-08-18T12:08:07Z</time>
      </trkpt>
      <trkpt lat="48.38015" lon="2.5464">
        <ele>106</ele>
        <time>2007-08-18T12:08:27Z</time>
      </trkpt>
      <trkpt lat="48.38001" lon="2.54644">
        <ele>103</ele>
        <time>2007-08-18T12:08:46Z</time>
      </trkpt>
      <trkpt lat="48.37988" lon="2.54638">
        <ele>100</ele>
        <time>2007-08-18T12:09:54Z</time>
      </trkpt>
      <trkpt lat="48.37974" lon="2.54638">
        <ele>100</ele>
        <time>2007-08-18T12:10:04Z</time>
      </trkpt>
      <trkpt lat="48.37961" lon="2.5464">
        <ele>103</ele>
        <time>2007-08-18T12:10:22Z</time>
      </trkpt>
      <trkpt lat="48.37947" lon="2.54634">
        <ele>107</ele>
        <time>2007-08-18T12:10:44Z</time>
      </trkpt>
      <trkpt lat="48.37929" lon="2.54622">
        <ele>112</ele>
        <time>2007-08-18T12:11:01Z</time>
      </trkpt>
      <trkpt lat="48.37919" lon="2.54608">
        <ele>113</ele>
        <time>2007-08-18T12:11:12Z</time>
      </trkpt>
      <trkpt lat="48.37911" lon="2.5459">
        <ele>113</ele>
        <time>2007-08-18T12:11:24Z</time>
      </trkpt>
      <trkpt lat="48.37901" lon="2.54575">
        <ele>114</ele>
        <time>2007-08-18T12:11:58Z</time>
      </trkpt>
      <trkpt lat="48.37887" lon="2.54572">
        <ele>115</ele>
        <time>2007-08-18T12:12:21Z</time>
      </trkpt>
      <trkpt lat="48.37881" lon="2.54592">
        <ele>115</ele>
        <time>2007-08-18T12:12:44Z</time>
      </trkpt>
      <trkpt lat="48.37872" lon="2.54608">
        <ele>115</ele>
        <time>2007-08-18T12:13:01Z</time>
      </trkpt>
      <trkpt lat="48.37859" lon="2.54611">
        <ele>114</ele>
        <time>2007-08-18T12:13:11Z</time>
      </trkpt>
      <trkpt lat="48.37847" lon="2.54622">
        <ele>113</ele>
        <time>2007-08-18T12:13:30Z</time>
      </trkpt>
      <trkpt lat="48.37835" lon="2.54634">
        <ele>111</ele>
        <time>2007-08-18T12:13:53Z</time>
      </trkpt>
      <trkpt lat="48.3782" lon="2.54634">
        <ele>111</ele>
        <time>2007-08-18T12:14:17Z</time>
      </trkpt>
      <trkpt lat="48.37806" lon="2.54638">
        <ele>110</ele>
        <time>2007-08-18T12:14:29Z</time>
      </trkpt>
      <trkpt lat="48.3779" lon="2.54634">
        <ele>110</ele>
        <time>2007-08-18T12:14:46Z</time>
      </trkpt>
      <trkpt lat="48.37776" lon="2.54631">
        <ele>110</ele>
        <time>2007-08-18T12:14:58Z</time>
      </trkpt>
      <trkpt lat="48.37763" lon="2.54632">
        <ele>110</ele>
        <time>2007-08-18T12:15:21Z</time>
      </trkpt>
      <trkpt lat="48.37749" lon="2.54628">
        <ele>109</ele>
        <time>2007-08-18T12:16:05Z</time>
      </trkpt>
      <trkpt lat="48.37736" lon="2.54626">
        <ele>108</ele>
        <time>2007-08-18T12:16:25Z</time>
      </trkpt>
      <trkpt lat="48.37722" lon="2.54628">
        <ele>106</ele>
        <time>2007-08-18T12:16:48Z</time>
      </trkpt>
      <trkpt lat="48.37709" lon="2.54626">
        <ele>105</ele>
        <time>2007-08-18T12:17:05Z</time>
      </trkpt>
      <trkpt lat="48.37695" lon="2.54628">
        <ele>101</ele>
        <time>2007-08-18T12:17:31Z</time>
      </trkpt>
      <trkpt lat="48.37683" lon="2.54638">
        <ele>98</ele>
        <time>2007-08-18T12:17:52Z</time>
      </trkpt>
      <trkpt lat="48.37668" lon="2.54649">
        <ele>95</ele>
        <time>2007-08-18T12:18:09Z</time>
      </trkpt>
      <trkpt lat="48.37659" lon="2.54667">
        <ele>95</ele>
        <time>2007-08-18T12:18:27Z</time>
      </trkpt>
      <trkpt lat="48.37652" lon="2.54685">
        <ele>97</ele>
        <time>2007-08-18T12:18:44Z</time>
      </trkpt>
      <trkpt lat="48.37638" lon="2.54692">
        <ele>99</ele>
        <time>2007-08-18T12:19:02Z</time>
      </trkpt>
      <trkpt lat="48.37625" lon="2.54691">
        <ele>100</ele>
        <time>2007-08-18T12:19:15Z</time>
      </trkpt>
      <trkpt lat="48.37616" lon="2.54674">
        <ele>98</ele>
        <time>2007-08-18T12:19:26Z</time>
      </trkpt>
      <trkpt lat="48.37616" lon="2.54653">
        <ele>97</ele>
        <time>2007-08-18T12:19:43Z</time>
      </trkpt>
      <trkpt lat="48.37613" lon="2.54629">
        <ele>96</ele>
        <time>2007-08-18T12:20:00Z</time>
      </trkpt>
      <trkpt lat="48.3761" lon="2.54607">
        <ele>95</ele>
        <time>2007-08-18T12:20:13Z</time>
      </trkpt>
      <trkpt lat="48.37602" lon="2.54589">
        <ele>98</ele>
        <time>2007-08-18T12:20:38Z</time>
      </trkpt>
      <trkpt lat="48.37596" lon="2.54569">
        <ele>101</ele>
        <time>2007-08-18T12:21:01Z</time>
      </trkpt>
      <trkpt lat="48.37596" lon="2.54547">
        <ele>103</ele>
        <time>2007-08-18T12:21:18Z</time>
      </trkpt>
      <trkpt lat="48.37599" lon="2.54526">
        <ele>103</ele>
        <time>2007-08-18T12:21:50Z</time>
      </trkpt>
      <trkpt lat="48.37596" lon="2.54505">
        <ele>103</ele>
        <time>2007-08-18T12:22:15Z</time>
      </trkpt>
      <trkpt lat="48.37599" lon="2.54484">
        <ele>101</ele>
        <time>2007-08-18T12:22:32Z</time>
      </trkpt>
      <trkpt lat="48.37593" lon="2.54464">
        <ele>103</ele>
        <time>2007-08-18T12:22:50Z</time>
      </trkpt>
      <trkpt lat="48.37595" lon="2.54443">
        <ele>101</ele>
        <time>2007-08-18T12:23:08Z</time>
      </trkpt>
      <trkpt lat="48.37593" lon="2.54422">
        <ele>100</ele>
        <time>2007-08-18T12:23:28Z</time>
      </trkpt>
      <trkpt lat="48.37589" lon="2.54401">
        <ele>100</ele>
        <time>2007-08-18T12:23:45Z</time>
      </trkpt>
      <trkpt lat="48.3759" lon="2.54376">
        <ele>102</ele>
        <time>2007-08-18T12:24:02Z</time>
      </trkpt>
      <trkpt lat="48.3759" lon="2.54355">
        <ele>104</ele>
        <time>2007-08-18T12:24:20Z</time>
      </trkpt>
      <trkpt lat="48.37592" lon="2.54331">
        <ele>105</ele>
        <time>2007-08-18T12:24:37Z</time>
      </trkpt>
      <trkpt lat="48.37586" lon="2.5431">
        <ele>107</ele>
        <time>2007-08-18T12:24:54Z</time>
      </trkpt>
      <trkpt lat="48.37577" lon="2.54292">
        <ele>111</ele>
        <time>2007-08-18T12:25:11Z</time>
      </trkpt>
      <trkpt lat="48.37571" lon="2.54271">
        <ele>110</ele>
        <time>2007-08-18T12:25:28Z</time>
      </trkpt>
      <trkpt lat="48.37566" lon="2.5425">
        <ele>108</ele>
        <time>2007-08-18T12:25:47Z</time>
      </trkpt>
      <trkpt lat="48.37563" lon="2.54226">
        <ele>106</ele>
        <time>2007-08-18T12:26:04Z</time>
      </trkpt>
      <trkpt lat="48.37568" lon="2.54206">
        <ele>106</ele>
        <time>2007-08-18T12:26:23Z</time>
      </trkpt>
      <trkpt lat="48.37578" lon="2.54193">
        <ele>105</ele>
        <time>2007-08-18T12:27:00Z</time>
      </trkpt>
      <trkpt lat="48.37583" lon="2.54173">
        <ele>101</ele>
        <time>2007-08-18T12:27:19Z</time>
      </trkpt>
      <trkpt lat="48.37583" lon="2.54152">
        <ele>99</ele>
        <time>2007-08-18T12:27:36Z</time>
      </trkpt>
      <trkpt lat="48.37586" lon="2.54128">
        <ele>96</ele>
        <time>2007-08-18T12:27:53Z</time>
      </trkpt>
      <trkpt lat="48.37574" lon="2.54115">
        <ele>97</ele>
        <time>2007-08-18T12:28:04Z</time>
      </trkpt>
      <trkpt lat="48.37565" lon="2.54095">
        <ele>96</ele>
        <time>2007-08-18T12:28:16Z</time>
      </trkpt>
      <trkpt lat="48.37565" lon="2.54074">
        <ele>94</ele>
        <time>2007-08-18T12:28:29Z</time>
      </trkpt>
      <trkpt lat="48.37559" lon="2.54053">
        <ele>93</ele>
        <time>2007-08-18T12:28:40Z</time>
      </trkpt>
      <trkpt lat="48.37553" lon="2.54031">
        <ele>92</ele>
        <time>2007-08-18T12:28:53Z</time>
      </trkpt>
      <trkpt lat="48.37544" lon="2.54008">
        <ele>91</ele>
        <time>2007-08-18T12:29:10Z</time>
      </trkpt>
      <trkpt lat="48.3753" lon="2.54004">
        <ele>91</ele>
        <time>2007-08-18T12:29:23Z</time>
      </trkpt>
      <trkpt lat="48.37514" lon="2.54004">
        <ele>89</ele>
        <time>2007-08-18T12:29:40Z</time>
      </trkpt>
      <trkpt lat="48.37497" lon="2.53996">
        <ele>86</ele>
        <time>2007-08-18T12:29:57Z</time>
      </trkpt>
      <trkpt lat="48.37482" lon="2.53996">
        <ele>84</ele>
        <time>2007-08-18T12:30:14Z</time>
      </trkpt>
      <trkpt lat="48.37469" lon="2.54005">
        <ele>82</ele>
        <time>2007-08-18T12:30:23Z</time>
      </trkpt>
      <trkpt lat="48.37458" lon="2.5402">
        <ele>80</ele>
        <time>2007-08-18T12:30:35Z</time>
      </trkpt>
      <trkpt lat="48.37445" lon="2.54035">
        <ele>78</ele>
        <time>2007-08-18T12:30:52Z</time>
      </trkpt>
      <trkpt lat="48.37433" lon="2.54049">
        <ele>78</ele>
        <time>2007-08-18T12:31:03Z</time>
      </trkpt>
      <trkpt lat="48.37427" lon="2.54068">
        <ele>79</ele>
        <time>2007-08-18T12:31:13Z</time>
      </trkpt>
      <trkpt lat="48.37419" lon="2.54086">
        <ele>80</ele>
        <time>2007-08-18T12:31:31Z</time>
      </trkpt>
      <trkpt lat="48.37406" lon="2.54091">
        <ele>81</ele>
        <time>2007-08-18T12:31:38Z</time>
      </trkpt>
      <trkpt lat="48.37392" lon="2.54089">
        <ele>82</ele>
        <time>2007-08-18T12:31:51Z</time>
      </trkpt>
      <trkpt lat="48.37377" lon="2.54086">
        <ele>83</ele>
        <time>2007-08-18T12:32:10Z</time>
      </trkpt>
      <trkpt lat="48.37364" lon="2.54091">
        <ele>84</ele>
        <time>2007-08-18T12:32:20Z</time>
      </trkpt>
      <trkpt lat="48.3735" lon="2.54089">
        <ele>86</ele>
        <time>2007-08-18T12:32:29Z</time>
      </trkpt>
      <trkpt lat="48.37338" lon="2.54076">
        <ele>85</ele>
        <time>2007-08-18T12:32:49Z</time>
      </trkpt>
      <trkpt lat="48.37323" lon="2.54079">
        <ele>87</ele>
        <time>2007-08-18T12:32:58Z</time>
      </trkpt>
      <trkpt lat="48.3731" lon="2.54074">
        <ele>88</ele>
        <time>2007-08-18T12:33:11Z</time>
      </trkpt>
      <trkpt lat="48.37296" lon="2.54067">
        <ele>88</ele>
        <time>2007-08-18T12:33:28Z</time>
      </trkpt>
      <trkpt lat="48.37283" lon="2.54068">
        <ele>90</ele>
        <time>2007-08-18T12:33:41Z</time>
      </trkpt>
      <trkpt lat="48.37269" lon="2.54073">
        <ele>91</ele>
        <time>2007-08-18T12:33:51Z</time>
      </trkpt>
      <trkpt lat="48.37256" lon="2.5407">
        <ele>91</ele>
        <time>2007-08-18T12:34:02Z</time>
      </trkpt>
      <trkpt lat="48.37242" lon="2.54074">
        <ele>90</ele>
        <time>2007-08-18T12:34:12Z</time>
      </trkpt>
      <trkpt lat="48.3723" lon="2.54064">
        <ele>90</ele>
        <time>2007-08-18T12:34:24Z</time>
      </trkpt>
      <trkpt lat="48.37215" lon="2.54046">
        <ele>88</ele>
        <time>2007-08-18T12:34:41Z</time>
      </trkpt>
      <trkpt lat="48.37211" lon="2.54023">
        <ele>88</ele>
        <time>2007-08-18T12:34:58Z</time>
      </trkpt>
      <trkpt lat="48.37215" lon="2.54004">
        <ele>87</ele>
        <time>2007-08-18T12:35:10Z</time>
      </trkpt>
      <trkpt lat="48.37217" lon="2.53983">
        <ele>86</ele>
        <time>2007-08-18T12:35:22Z</time>
      </trkpt>
      <trkpt lat="48.37209" lon="2.53965">
        <ele>86</ele>
        <time>2007-08-18T12:35:43Z</time>
      </trkpt>
      <trkpt lat="48.37196" lon="2.53957">
        <ele>86</ele>
        <time>2007-08-18T12:36:04Z</time>
      </trkpt>
      <trkpt lat="48.37182" lon="2.53948">
        <ele>86</ele>
        <time>2007-08-18T12:36:32Z</time>
      </trkpt>
      <trkpt lat="48.37172" lon="2.53932">
        <ele>87</ele>
        <time>2007-08-18T12:37:04Z</time>
      </trkpt>
      <trkpt lat="48.37157" lon="2.53927">
        <ele>89</ele>
        <time>2007-08-18T12:37:21Z</time>
      </trkpt>
      <trkpt lat="48.37143" lon="2.53926">
        <ele>91</ele>
        <time>2007-08-18T12:37:27Z</time>
      </trkpt>
      <trkpt lat="48.3713" lon="2.53918">
        <ele>93</ele>
        <time>2007-08-18T12:37:44Z</time>
      </trkpt>
      <trkpt lat="48.37124" lon="2.53896">
        <ele>93</ele>
        <time>2007-08-18T12:38:01Z</time>
      </trkpt>
      <trkpt lat="48.37113" lon="2.53881">
        <ele>95</ele>
        <time>2007-08-18T12:38:28Z</time>
      </trkpt>
      <trkpt lat="48.371" lon="2.53878">
        <ele>96</ele>
        <time>2007-08-18T12:38:54Z</time>
      </trkpt>
      <trkpt lat="48.37088" lon="2.53863">
        <ele>99</ele>
        <time>2007-08-18T12:39:21Z</time>
      </trkpt>
      <trkpt lat="48.37074" lon="2.53866">
        <ele>99</ele>
        <time>2007-08-18T12:39:39Z</time>
      </trkpt>
      <trkpt lat="48.37065" lon="2.53849">
        <ele>99</ele>
        <time>2007-08-18T12:39:57Z</time>
      </trkpt>
      <trkpt lat="48.37055" lon="2.53836">
        <ele>99</ele>
        <time>2007-08-18T12:40:17Z</time>
      </trkpt>
      <trkpt lat="48.37043" lon="2.53824">
        <ele>99</ele>
        <time>2007-08-18T12:40:28Z</time>
      </trkpt>
      <trkpt lat="48.37034" lon="2.53807">
        <ele>99</ele>
        <time>2007-08-18T12:40:40Z</time>
      </trkpt>
      <trkpt lat="48.37031" lon="2.53786">
        <ele>100</ele>
        <time>2007-08-18T12:41:00Z</time>
      </trkpt>
      <trkpt lat="48.37023" lon="2.53765">
        <ele>101</ele>
        <time>2007-08-18T12:41:18Z</time>
      </trkpt>
      <trkpt lat="48.37023" lon="2.53744">
        <ele>102</ele>
        <time>2007-08-18T12:41:52Z</time>
      </trkpt>
      <trkpt lat="48.3701" lon="2.53735">
        <ele>105</ele>
        <time>2007-08-18T12:42:16Z</time>
      </trkpt>
      <trkpt lat="48.37008" lon="2.53714">
        <ele>106</ele>
        <time>2007-08-18T12:42:43Z</time>
      </trkpt>
      <trkpt lat="48.37017" lon="2.53695">
        <ele>103</ele>
        <time>2007-08-18T12:43:00Z</time>
      </trkpt>
      <trkpt lat="48.37007" lon="2.53675">
        <ele>104</ele>
        <time>2007-08-18T12:43:17Z</time>
      </trkpt>
      <trkpt lat="48.36998" lon="2.53656">
        <ele>105</ele>
        <time>2007-08-18T12:43:35Z</time>
      </trkpt>
      <trkpt lat="48.36987" lon="2.53642">
        <ele>103</ele>
        <time>2007-08-18T12:44:07Z</time>
      </trkpt>
      <trkpt lat="48.36987" lon="2.53621">
        <ele>97</ele>
        <time>2007-08-18T12:44:24Z</time>
      </trkpt>
      <trkpt lat="48.36977" lon="2.53606">
        <ele>94</ele>
        <time>2007-08-18T12:44:52Z</time>
      </trkpt>
      <trkpt lat="48.36963" lon="2.53609">
        <ele>96</ele>
        <time>2007-08-18T12:45:04Z</time>
      </trkpt>
      <trkpt lat="48.3695" lon="2.53602">
        <ele>96</ele>
        <time>2007-08-18T12:45:30Z</time>
      </trkpt>
      <trkpt lat="48.36936" lon="2.53597">
        <ele>97</ele>
        <time>2007-08-18T12:45:39Z</time>
      </trkpt>
      <trkpt lat="48.36936" lon="2.53576">
        <ele>93</ele>
        <time>2007-08-18T12:46:02Z</time>
      </trkpt>
      <trkpt lat="48.36935" lon="2.53555">
        <ele>90</ele>
        <time>2007-08-18T12:46:30Z</time>
      </trkpt>
      <trkpt lat="48.36927" lon="2.53537">
        <ele>88</ele>
        <time>2007-08-18T12:46:59Z</time>
      </trkpt>
      <trkpt lat="48.36929" lon="2.53515">
        <ele>84</ele>
        <time>2007-08-18T12:47:19Z</time>
      </trkpt>
      <trkpt lat="48.36917" lon="2.53504">
        <ele>84</ele>
        <time>2007-08-18T12:47:58Z</time>
      </trkpt>
      <trkpt lat="48.36905" lon="2.53491">
        <ele>83</ele>
        <time>2007-08-18T12:48:17Z</time>
      </trkpt>
      <trkpt lat="48.36891" lon="2.53483">
        <ele>83</ele>
        <time>2007-08-18T12:48:44Z</time>
      </trkpt>
      <trkpt lat="48.36876" lon="2.53486">
        <ele>85</ele>
        <time>2007-08-18T12:48:55Z</time>
      </trkpt>
      <trkpt lat="48.36861" lon="2.53494">
        <ele>87</ele>
        <time>2007-08-18T12:49:26Z</time>
      </trkpt>
      <trkpt lat="48.36848" lon="2.53497">
        <ele>89</ele>
        <time>2007-08-18T12:49:37Z</time>
      </trkpt>
      <trkpt lat="48.36837" lon="2.5351">
        <ele>93</ele>
        <time>2007-08-18T12:50:10Z</time>
      </trkpt>
      <trkpt lat="48.36824" lon="2.53515">
        <ele>96</ele>
        <time>2007-08-18T12:50:27Z</time>
      </trkpt>
      <trkpt lat="48.3681" lon="2.53518">
        <ele>99</ele>
        <time>2007-08-18T12:50:35Z</time>
      </trkpt>
      <trkpt lat="48.36797" lon="2.53513">
        <ele>100</ele>
        <time>2007-08-18T12:50:54Z</time>
      </trkpt>
      <trkpt lat="48.36783" lon="2.53518">
        <ele>101</ele>
        <time>2007-08-18T12:51:05Z</time>
      </trkpt>
      <trkpt lat="48.36768" lon="2.53515">
        <ele>102</ele>
        <time>2007-08-18T12:51:12Z</time>
      </trkpt>
      <trkpt lat="48.36756" lon="2.53504">
        <ele>99</ele>
        <time>2007-08-18T12:51:33Z</time>
      </trkpt>
      <trkpt lat="48.36741" lon="2.53507">
        <ele>98</ele>
        <time>2007-08-18T12:51:45Z</time>
      </trkpt>
      <trkpt lat="48.36728" lon="2.53503">
        <ele>97</ele>
        <time>2007-08-18T12:52:09Z</time>
      </trkpt>
      <trkpt lat="48.36722" lon="2.53483">
        <ele>94</ele>
        <time>2007-08-18T12:52:48Z</time>
      </trkpt>
      <trkpt lat="48.3671" lon="2.53473">
        <ele>90</ele>
        <time>2007-08-18T12:53:00Z</time>
      </trkpt>
      <trkpt lat="48.36707" lon="2.53452">
        <ele>87</ele>
        <time>2007-08-18T12:53:11Z</time>
      </trkpt>
      <trkpt lat="48.36704" lon="2.53431">
        <ele>85</ele>
        <time>2007-08-18T12:53:23Z</time>
      </trkpt>
      <trkpt lat="48.3669" lon="2.53431">
        <ele>82</ele>
        <time>2007-08-18T12:53:51Z</time>
      </trkpt>
      <trkpt lat="48.36681" lon="2.53449">
        <ele>81</ele>
        <time>2007-08-18T12:54:11Z</time>
      </trkpt>
      <trkpt lat="48.36678" lon="2.5347">
        <ele>84</ele>
        <time>2007-08-18T12:54:29Z</time>
      </trkpt>
      <trkpt lat="48.36666" lon="2.53483">
        <ele>86</ele>
        <time>2007-08-18T12:54:52Z</time>
      </trkpt>
      <trkpt lat="48.36665" lon="2.53504">
        <ele>90</ele>
        <time>2007-08-18T12:55:05Z</time>
      </trkpt>
      <trkpt lat="48.36663" lon="2.53525">
        <ele>94</ele>
        <time>2007-08-18T12:55:18Z</time>
      </trkpt>
      <trkpt lat="48.36654" lon="2.53542">
        <ele>98</ele>
        <time>2007-08-18T12:55:40Z</time>
      </trkpt>
      <trkpt lat="48.36645" lon="2.53558">
        <ele>102</ele>
        <time>2007-08-18T12:56:03Z</time>
      </trkpt>
      <trkpt lat="48.3665" lon="2.53579">
        <ele>106</ele>
        <time>2007-08-18T12:56:21Z</time>
      </trkpt>
      <trkpt lat="48.36645" lon="2.53599">
        <ele>108</ele>
        <time>2007-08-18T12:56:43Z</time>
      </trkpt>
      <trkpt lat="48.36632" lon="2.53596">
        <ele>107</ele>
        <time>2007-08-18T12:57:06Z</time>
      </trkpt>
      <trkpt lat="48.36618" lon="2.53585">
        <ele>105</ele>
        <time>2007-08-18T12:57:19Z</time>
      </trkpt>
      <trkpt lat="48.36606" lon="2.53572">
        <ele>102</ele>
        <time>2007-08-18T12:57:36Z</time>
      </trkpt>
      <trkpt lat="48.36593" lon="2.53575">
        <ele>101</ele>
        <time>2007-08-18T12:57:48Z</time>
      </trkpt>
      <trkpt lat="48.36579" lon="2.53575">
        <ele>99</ele>
        <time>2007-08-18T12:58:01Z</time>
      </trkpt>
      <trkpt lat="48.36566" lon="2.53582">
        <ele>97</ele>
        <time>2007-08-18T12:58:18Z</time>
      </trkpt>
      <trkpt lat="48.3656" lon="2.53563">
        <ele>97</ele>
        <time>2007-08-18T12:58:40Z</time>
      </trkpt>
      <trkpt lat="48.36545" lon="2.53555">
        <ele>96</ele>
        <time>2007-08-18T12:58:57Z</time>
      </trkpt>
      <trkpt lat="48.36536" lon="2.53539">
        <ele>97</ele>
        <time>2007-08-18T12:59:15Z</time>
      </trkpt>
      <trkpt lat="48.36522" lon="2.53534">
        <ele>97</ele>
        <time>2007-08-18T12:59:23Z</time>
      </trkpt>
      <trkpt lat="48.3651" lon="2.53521">
        <ele>96</ele>
        <time>2007-08-18T12:59:43Z</time>
      </trkpt>
      <trkpt lat="48.36498" lon="2.53509">
        <ele>95</ele>
        <time>2007-08-18T12:59:56Z</time>
      </trkpt>
      <trkpt lat="48.36492" lon="2.53489">
        <ele>96</ele>
        <time>2007-08-18T13:00:14Z</time>
      </trkpt>
      <trkpt lat="48.36492" lon="2.53464">
        <ele>97</ele>
        <time>2007-08-18T13:00:31Z</time>
      </trkpt>
      <trkpt lat="48.36483" lon="2.53447">
        <ele>96</ele>
        <time>2007-08-18T13:00:42Z</time>
      </trkpt>
      <trkpt lat="48.36482" lon="2.53426">
        <ele>94</ele>
        <time>2007-08-18T13:01:01Z</time>
      </trkpt>
      <trkpt lat="48.36489" lon="2.53408">
        <ele>94</ele>
        <time>2007-08-18T13:01:20Z</time>
      </trkpt>
      <trkpt lat="48.36495" lon="2.53389">
        <ele>92</ele>
        <time>2007-08-18T13:01:33Z</time>
      </trkpt>
      <trkpt lat="48.36491" lon="2.53368">
        <ele>89</ele>
        <time>2007-08-18T13:01:50Z</time>
      </trkpt>
      <trkpt lat="48.36477" lon="2.53353">
        <ele>87</ele>
        <time>2007-08-18T13:02:07Z</time>
      </trkpt>
      <trkpt lat="48.36465" lon="2.53342">
        <ele>85</ele>
        <time>2007-08-18T13:02:18Z</time>
      </trkpt>
      <trkpt lat="48.36452" lon="2.53335">
        <ele>84</ele>
        <time>2007-08-18T13:02:45Z</time>
      </trkpt>
      <trkpt lat="48.36438" lon="2.53338">
        <ele>85</ele>
        <time>2007-08-18T13:02:55Z</time>
      </trkpt>
      <trkpt lat="48.36444" lon="2.53357">
        <ele>87</ele>
        <time>2007-08-18T13:03:12Z</time>
      </trkpt>
      <trkpt lat="48.36432" lon="2.53374">
        <ele>90</ele>
        <time>2007-08-18T13:03:31Z</time>
      </trkpt>
      <trkpt lat="48.36419" lon="2.53366">
        <ele>89</ele>
        <time>2007-08-18T13:04:19Z</time>
      </trkpt>
      <trkpt lat="48.36404" lon="2.53368">
        <ele>89</ele>
        <time>2007-08-18T13:04:27Z</time>
      </trkpt>
      <trkpt lat="48.36393" lon="2.53354">
        <ele>88</ele>
        <time>2007-08-18T13:04:56Z</time>
      </trkpt>
      <trkpt lat="48.36387" lon="2.53333">
        <ele>85</ele>
        <time>2007-08-18T13:05:08Z</time>
      </trkpt>
      <trkpt lat="48.36374" lon="2.5333">
        <ele>84</ele>
        <time>2007-08-18T13:05:29Z</time>
      </trkpt>
      <trkpt lat="48.36363" lon="2.53315">
        <ele>81</ele>
        <time>2007-08-18T13:05:57Z</time>
      </trkpt>
      <trkpt lat="48.36351" lon="2.53326">
        <ele>82</ele>
        <time>2007-08-18T13:06:06Z</time>
      </trkpt>
      <trkpt lat="48.36336" lon="2.53327">
        <ele>82</ele>
        <time>2007-08-18T13:06:23Z</time>
      </trkpt>
      <trkpt lat="48.36323" lon="2.53338">
        <ele>82</ele>
        <time>2007-08-18T13:06:30Z</time>
      </trkpt>
      <trkpt lat="48.36311" lon="2.53348">
        <ele>84</ele>
        <time>2007-08-18T13:06:49Z</time>
      </trkpt>
      <trkpt lat="48.36302" lon="2.53366">
        <ele>86</ele>
        <time>2007-08-18T13:06:59Z</time>
      </trkpt>
      <trkpt lat="48.36288" lon="2.53374">
        <ele>88</ele>
        <time>2007-08-18T13:07:43Z</time>
      </trkpt>
      <trkpt lat="48.36275" lon="2.53378">
        <ele>91</ele>
        <time>2007-08-18T13:07:56Z</time>
      </trkpt>
      <trkpt lat="48.36261" lon="2.53389">
        <ele>95</ele>
        <time>2007-08-18T13:08:06Z</time>
      </trkpt>
      <trkpt lat="48.36249" lon="2.53401">
        <ele>99</ele>
        <time>2007-08-18T13:08:17Z</time>
      </trkpt>
      <trkpt lat="48.36239" lon="2.53414">
        <ele>102</ele>
        <time>2007-08-18T13:08:29Z</time>
      </trkpt>
      <trkpt lat="48.3623" lon="2.53431">
        <ele>104</ele>
        <time>2007-08-18T13:09:08Z</time>
      </trkpt>
      <trkpt lat="48.36219" lon="2.53444">
        <ele>104</ele>
        <time>2007-08-18T13:09:16Z</time>
      </trkpt>
      <trkpt lat="48.36215" lon="2.53464">
        <ele>106</ele>
        <time>2007-08-18T13:09:26Z</time>
      </trkpt>
      <trkpt lat="48.36206" lon="2.53486">
        <ele>108</ele>
        <time>2007-08-18T13:10:01Z</time>
      </trkpt>
      <trkpt lat="48.36207" lon="2.53507">
        <ele>110</ele>
        <time>2007-08-18T13:10:27Z</time>
      </trkpt>
      <trkpt lat="48.36216" lon="2.53491">
        <ele>107</ele>
        <time>2007-08-18T13:10:32Z</time>
      </trkpt>
      <trkpt lat="48.36213" lon="2.53512">
        <ele>109</ele>
        <time>2007-08-18T13:15:37Z</time>
      </trkpt>
      <trkpt lat="48.36212" lon="2.53533">
        <ele>110</ele>
        <time>2007-08-18T13:16:04Z</time>
      </trkpt>
      <trkpt lat="48.36206" lon="2.53552">
        <ele>111</ele>
        <time>2007-08-18T13:16:31Z</time>
      </trkpt>
      <trkpt lat="48.36201" lon="2.53575">
        <ele>111</ele>
        <time>2007-08-18T13:16:57Z</time>
      </trkpt>
      <trkpt lat="48.36204" lon="2.53596">
        <ele>110</ele>
        <time>2007-08-18T13:17:16Z</time>
      </trkpt>
      <trkpt lat="48.3621" lon="2.53615">
        <ele>108</ele>
        <time>2007-08-18T13:17:40Z</time>
      </trkpt>
      <trkpt lat="48.36213" lon="2.53636">
        <ele>106</ele>
        <time>2007-08-18T13:17:58Z</time>
      </trkpt>
      <trkpt lat="48.36216" lon="2.53659">
        <ele>104</ele>
        <time>2007-08-18T13:18:16Z</time>
      </trkpt>
      <trkpt lat="48.36218" lon="2.5368">
        <ele>103</ele>
        <time>2007-08-18T13:18:33Z</time>
      </trkpt>
      <trkpt lat="48.36213" lon="2.53699">
        <ele>103</ele>
        <time>2007-08-18T13:18:50Z</time>
      </trkpt>
      <trkpt lat="48.36206" lon="2.53723">
        <ele>104</ele>
        <time>2007-08-18T13:19:07Z</time>
      </trkpt>
      <trkpt lat="48.362" lon="2.53746">
        <ele>105</ele>
        <time>2007-08-18T13:19:24Z</time>
      </trkpt>
      <trkpt lat="48.36198" lon="2.53767">
        <ele>105</ele>
        <time>2007-08-18T13:19:41Z</time>
      </trkpt>
      <trkpt lat="48.36189" lon="2.53785">
        <ele>108</ele>
        <time>2007-08-18T13:19:59Z</time>
      </trkpt>
      <trkpt lat="48.36186" lon="2.53806">
        <ele>109</ele>
        <time>2007-08-18T13:20:18Z</time>
      </trkpt>
      <trkpt lat="48.36174" lon="2.53818">
        <ele>111</ele>
        <time>2007-08-18T13:20:46Z</time>
      </trkpt>
      <trkpt lat="48.36159" lon="2.53824">
        <ele>112</ele>
        <time>2007-08-18T13:21:03Z</time>
      </trkpt>
      <trkpt lat="48.36152" lon="2.53842">
        <ele>114</ele>
        <time>2007-08-18T13:21:25Z</time>
      </trkpt>
      <trkpt lat="48.36141" lon="2.53858">
        <ele>116</ele>
        <time>2007-08-18T13:21:43Z</time>
      </trkpt>
      <trkpt lat="48.36132" lon="2.53875">
        <ele>115</ele>
        <time>2007-08-18T13:22:02Z</time>
      </trkpt>
      <trkpt lat="48.3612" lon="2.53887">
        <ele>112</ele>
        <time>2007-08-18T13:22:23Z</time>
      </trkpt>
      <trkpt lat="48.3611" lon="2.53903">
        <ele>110</ele>
        <time>2007-08-18T13:22:49Z</time>
      </trkpt>
      <trkpt lat="48.36099" lon="2.5389">
        <ele>108</ele>
        <time>2007-08-18T13:23:28Z</time>
      </trkpt>
      <trkpt lat="48.36107" lon="2.53872">
        <ele>110</ele>
        <time>2007-08-18T13:23:55Z</time>
      </trkpt>
      <trkpt lat="48.36114" lon="2.53851">
        <ele>111</ele>
        <time>2007-08-18T13:24:12Z</time>
      </trkpt>
      <trkpt lat="48.36111" lon="2.53825">
        <ele>110</ele>
        <time>2007-08-18T13:24:29Z</time>
      </trkpt>
      <trkpt lat="48.3611" lon="2.53804">
        <ele>108</ele>
        <time>2007-08-18T13:24:41Z</time>
      </trkpt>
      <trkpt lat="48.36116" lon="2.53782">
        <ele>108</ele>
        <time>2007-08-18T13:24:58Z</time>
      </trkpt>
      <trkpt lat="48.36114" lon="2.53761">
        <ele>106</ele>
        <time>2007-08-18T13:25:16Z</time>
      </trkpt>
      <trkpt lat="48.36119" lon="2.53741">
        <ele>104</ele>
        <time>2007-08-18T13:25:25Z</time>
      </trkpt>
      <trkpt lat="48.36114" lon="2.53722">
        <ele>102</ele>
        <time>2007-08-18T13:25:37Z</time>
      </trkpt>
      <trkpt lat="48.36108" lon="2.53701">
        <ele>99</ele>
        <time>2007-08-18T13:25:58Z</time>
      </trkpt>
      <trkpt lat="48.36113" lon="2.53681">
        <ele>98</ele>
        <time>2007-08-18T13:26:23Z</time>
      </trkpt>
      <trkpt lat="48.3611" lon="2.5366">
        <ele>95</ele>
        <time>2007-08-18T13:26:59Z</time>
      </trkpt>
      <trkpt lat="48.36111" lon="2.53639">
        <ele>94</ele>
        <time>2007-08-18T13:27:20Z</time>
      </trkpt>
      <trkpt lat="48.36105" lon="2.5362">
        <ele>91</ele>
        <time>2007-08-18T13:27:33Z</time>
      </trkpt>
      <trkpt lat="48.36093" lon="2.53609">
        <ele>88</ele>
        <time>2007-08-18T13:27:46Z</time>
      </trkpt>
      <trkpt lat="48.36096" lon="2.53588">
        <ele>86</ele>
        <time>2007-08-18T13:28:03Z</time>
      </trkpt>
      <trkpt lat="48.36099" lon="2.53566">
        <ele>89</ele>
        <time>2007-08-18T13:28:23Z</time>
      </trkpt>
      <trkpt lat="48.36104" lon="2.53546">
        <ele>93</ele>
        <time>2007-08-18T13:28:50Z</time>
      </trkpt>
      <trkpt lat="48.3611" lon="2.53527">
        <ele>97</ele>
        <time>2007-08-18T13:29:16Z</time>
      </trkpt>
      <trkpt lat="48.36114" lon="2.53507">
        <ele>100</ele>
        <time>2007-08-18T13:29:41Z</time>
      </trkpt>
      <trkpt lat="48.36123" lon="2.53489">
        <ele>104</ele>
        <time>2007-08-18T13:30:14Z</time>
      </trkpt>
      <trkpt lat="48.36132" lon="2.53471">
        <ele>107</ele>
        <time>2007-08-18T13:30:47Z</time>
      </trkpt>
      <trkpt lat="48.36141" lon="2.53455">
        <ele>110</ele>
        <time>2007-08-18T13:31:19Z</time>
      </trkpt>
      <trkpt lat="48.36146" lon="2.53434">
        <ele>108</ele>
        <time>2007-08-18T13:31:37Z</time>
      </trkpt>
      <trkpt lat="48.36152" lon="2.53414">
        <ele>106</ele>
        <time>2007-08-18T13:31:57Z</time>
      </trkpt>
      <trkpt lat="48.36164" lon="2.53404">
        <ele>105</ele>
        <time>2007-08-18T13:32:33Z</time>
      </trkpt>
      <trkpt lat="48.36165" lon="2.53383">
        <ele>103</ele>
        <time>2007-08-18T13:33:11Z</time>
      </trkpt>
      <trkpt lat="48.36179" lon="2.53374">
        <ele>101</ele>
        <time>2007-08-18T13:33:38Z</time>
      </trkpt>
      <trkpt lat="48.36188" lon="2.53357">
        <ele>99</ele>
        <time>2007-08-18T13:34:00Z</time>
      </trkpt>
      <trkpt lat="48.36201" lon="2.53356">
        <ele>100</ele>
        <time>2007-08-18T13:34:13Z</time>
      </trkpt>
      <trkpt lat="48.36213" lon="2.53345">
        <ele>100</ele>
        <time>2007-08-18T13:34:32Z</time>
      </trkpt>
      <trkpt lat="48.36225" lon="2.53332">
        <ele>100</ele>
        <time>2007-08-18T13:34:45Z</time>
      </trkpt>
      <trkpt lat="48.36239" lon="2.53326">
        <ele>98</ele>
        <time>2007-08-18T13:34:57Z</time>
      </trkpt>
      <trkpt lat="48.36252" lon="2.5332">
        <ele>96</ele>
        <time>2007-08-18T13:35:09Z</time>
      </trkpt>
      <trkpt lat="48.36254" lon="2.53299">
        <ele>93</ele>
        <time>2007-08-18T13:35:26Z</time>
      </trkpt>
      <trkpt lat="48.36266" lon="2.53279">
        <ele>89</ele>
        <time>2007-08-18T13:35:43Z</time>
      </trkpt>
      <trkpt lat="48.36279" lon="2.53275">
        <ele>87</ele>
        <time>2007-08-18T13:35:56Z</time>
      </trkpt>
      <trkpt lat="48.36288" lon="2.53257">
        <ele>85</ele>
        <time>2007-08-18T13:36:13Z</time>
      </trkpt>
      <trkpt lat="48.36293" lon="2.53237">
        <ele>82</ele>
        <time>2007-08-18T13:36:26Z</time>
      </trkpt>
      <trkpt lat="48.36305" lon="2.53227">
        <ele>80</ele>
        <time>2007-08-18T13:36:37Z</time>
      </trkpt>
      <trkpt lat="48.36312" lon="2.53207">
        <ele>78</ele>
        <time>2007-08-18T13:36:50Z</time>
      </trkpt>
      <trkpt lat="48.3632" lon="2.53188">
        <ele>77</ele>
        <time>2007-08-18T13:37:03Z</time>
      </trkpt>
      <trkpt lat="48.36323" lon="2.53167">
        <ele>75</ele>
        <time>2007-08-18T13:37:12Z</time>
      </trkpt>
      <trkpt lat="48.36335" lon="2.53149">
        <ele>74</ele>
        <time>2007-08-18T13:37:29Z</time>
      </trkpt>
      <trkpt lat="48.36348" lon="2.53143">
        <ele>74</ele>
        <time>2007-08-18T13:37:38Z</time>
      </trkpt>
      <trkpt lat="48.36362" lon="2.53143">
        <ele>74</ele>
        <time>2007-08-18T13:37:48Z</time>
      </trkpt>
      <trkpt lat="48.36377" lon="2.53138">
        <ele>75</ele>
        <time>2007-08-18T13:38:01Z</time>
      </trkpt>
      <trkpt lat="48.36392" lon="2.53137">
        <ele>77</ele>
        <time>2007-08-18T13:38:18Z</time>
      </trkpt>
      <trkpt lat="48.36405" lon="2.5314">
        <ele>78</ele>
        <time>2007-08-18T13:38:31Z</time>
      </trkpt>
      <trkpt lat="48.36416" lon="2.53125">
        <ele>78</ele>
        <time>2007-08-18T13:38:51Z</time>
      </trkpt>
      <trkpt lat="48.36429" lon="2.53114">
        <ele>79</ele>
        <time>2007-08-18T13:39:08Z</time>
      </trkpt>
      <trkpt lat="48.36431" lon="2.53093">
        <ele>78</ele>
        <time>2007-08-18T13:39:29Z</time>
      </trkpt>
      <trkpt lat="48.36441" lon="2.53074">
        <ele>78</ele>
        <time>2007-08-18T13:39:46Z</time>
      </trkpt>
      <trkpt lat="48.36452" lon="2.53059">
        <ele>78</ele>
        <time>2007-08-18T13:39:59Z</time>
      </trkpt>
      <trkpt lat="48.36461" lon="2.53041">
        <ele>76</ele>
        <time>2007-08-18T13:40:16Z</time>
      </trkpt>
      <trkpt lat="48.36471" lon="2.53021">
        <ele>74</ele>
        <time>2007-08-18T13:40:33Z</time>
      </trkpt>
      <trkpt lat="48.36485" lon="2.53018">
        <ele>74</ele>
        <time>2007-08-18T13:40:44Z</time>
      </trkpt>
      <trkpt lat="48.36497" lon="2.52997">
        <ele>71</ele>
        <time>2007-08-18T13:41:01Z</time>
      </trkpt>
      <trkpt lat="48.36506" lon="2.52976">
        <ele>70</ele>
        <time>2007-08-18T13:41:18Z</time>
      </trkpt>
      <trkpt lat="48.36509" lon="2.52955">
        <ele>69</ele>
        <time>2007-08-18T13:41:28Z</time>
      </trkpt>
      <trkpt lat="48.36521" lon="2.52937">
        <ele>69</ele>
        <time>2007-08-18T13:41:45Z</time>
      </trkpt>
      <trkpt lat="48.36531" lon="2.52924">
        <ele>69</ele>
        <time>2007-08-18T13:42:34Z</time>
      </trkpt>
      <trkpt lat="48.36543" lon="2.52906">
        <ele>69</ele>
        <time>2007-08-18T13:42:51Z</time>
      </trkpt>
      <trkpt lat="48.36551" lon="2.52888">
        <ele>69</ele>
        <time>2007-08-18T13:43:00Z</time>
      </trkpt>
      <trkpt lat="48.36555" lon="2.52865">
        <ele>69</ele>
        <time>2007-08-18T13:43:17Z</time>
      </trkpt>
      <trkpt lat="48.36569" lon="2.5285">
        <ele>69</ele>
        <time>2007-08-18T13:43:34Z</time>
      </trkpt>
      <trkpt lat="48.36576" lon="2.52832">
        <ele>69</ele>
        <time>2007-08-18T13:43:44Z</time>
      </trkpt>
      <trkpt lat="48.36581" lon="2.52813">
        <ele>69</ele>
        <time>2007-08-18T13:43:52Z</time>
      </trkpt>
      <trkpt lat="48.36575" lon="2.52793">
        <ele>70</ele>
        <time>2007-08-18T13:44:00Z</time>
      </trkpt>
      <trkpt lat="48.36575" lon="2.52771">
        <ele>70</ele>
        <time>2007-08-18T13:44:17Z</time>
      </trkpt>
      <trkpt lat="48.36584" lon="2.5275">
        <ele>70</ele>
        <time>2007-08-18T13:44:34Z</time>
      </trkpt>
      <trkpt lat="48.36581" lon="2.52727">
        <ele>70</ele>
        <time>2007-08-18T13:44:46Z</time>
      </trkpt>
      <trkpt lat="48.36584" lon="2.52706">
        <ele>70</ele>
        <time>2007-08-18T13:44:59Z</time>
      </trkpt>
      <trkpt lat="48.36588" lon="2.52687">
        <ele>70</ele>
        <time>2007-08-18T13:45:10Z</time>
      </trkpt>
      <trkpt lat="48.36599" lon="2.52669">
        <ele>70</ele>
        <time>2007-08-18T13:45:22Z</time>
      </trkpt>
      <trkpt lat="48.36614" lon="2.52657">
        <ele>70</ele>
        <time>2007-08-18T13:45:39Z</time>
      </trkpt>
      <trkpt lat="48.36627" lon="2.52655">
        <ele>70</ele>
        <time>2007-08-18T13:45:52Z</time>
      </trkpt>
      <trkpt lat="48.36645" lon="2.52654">
        <ele>70</ele>
        <time>2007-08-18T13:46:09Z</time>
      </trkpt>
      <trkpt lat="48.36659" lon="2.52654">
        <ele>70</ele>
        <time>2007-08-18T13:46:18Z</time>
      </trkpt>
      <trkpt lat="48.36672" lon="2.52658">
        <ele>70</ele>
        <time>2007-08-18T13:46:28Z</time>
      </trkpt>
      <trkpt lat="48.36687" lon="2.52661">
        <ele>70</ele>
        <time>2007-08-18T13:46:40Z</time>
      </trkpt>
      <trkpt lat="48.36702" lon="2.52661">
        <ele>70</ele>
        <time>2007-08-18T13:46:52Z</time>
      </trkpt>
      <trkpt lat="48.36716" lon="2.52664">
        <ele>71</ele>
        <time>2007-08-18T13:47:02Z</time>
      </trkpt>
      <trkpt lat="48.36729" lon="2.52655">
        <ele>71</ele>
        <time>2007-08-18T13:47:14Z</time>
      </trkpt>
      <trkpt lat="48.36741" lon="2.52643">
        <ele>71</ele>
        <time>2007-08-18T13:47:24Z</time>
      </trkpt>
      <trkpt lat="48.36752" lon="2.5263">
        <ele>72</ele>
        <time>2007-08-18T13:47:35Z</time>
      </trkpt>
      <trkpt lat="48.36765" lon="2.52619">
        <ele>72</ele>
        <time>2007-08-18T13:47:46Z</time>
      </trkpt>
      <trkpt lat="48.36779" lon="2.52607">
        <ele>72</ele>
        <time>2007-08-18T13:47:59Z</time>
      </trkpt>
      <trkpt lat="48.36789" lon="2.52594">
        <ele>73</ele>
        <time>2007-08-18T13:48:11Z</time>
      </trkpt>
      <trkpt lat="48.36801" lon="2.5258">
        <ele>73</ele>
        <time>2007-08-18T13:48:23Z</time>
      </trkpt>
      <trkpt lat="48.368" lon="2.52559">
        <ele>73</ele>
        <time>2007-08-18T13:48:42Z</time>
      </trkpt>
      <trkpt lat="48.36791" lon="2.52541">
        <ele>72</ele>
        <time>2007-08-18T13:48:52Z</time>
      </trkpt>
      <trkpt lat="48.36777" lon="2.52534">
        <ele>73</ele>
        <time>2007-08-18T13:48:58Z</time>
      </trkpt>
      <trkpt lat="48.36765" lon="2.5252">
        <ele>73</ele>
        <time>2007-08-18T13:49:20Z</time>
      </trkpt>
      <trkpt lat="48.36755" lon="2.52507">
        <ele>73</ele>
        <time>2007-08-18T13:49:30Z</time>
      </trkpt>
      <trkpt lat="48.36746" lon="2.5249">
        <ele>74</ele>
        <time>2007-08-18T13:49:48Z</time>
      </trkpt>
      <trkpt lat="48.36734" lon="2.52472">
        <ele>75</ele>
        <time>2007-08-18T13:50:05Z</time>
      </trkpt>
      <trkpt lat="48.36719" lon="2.52466">
        <ele>77</ele>
        <time>2007-08-18T13:50:18Z</time>
      </trkpt>
      <trkpt lat="48.36705" lon="2.52468">
        <ele>78</ele>
        <time>2007-08-18T13:50:27Z</time>
      </trkpt>
      <trkpt lat="48.36692" lon="2.5246">
        <ele>80</ele>
        <time>2007-08-18T13:50:46Z</time>
      </trkpt>
      <trkpt lat="48.36678" lon="2.52459">
        <ele>82</ele>
        <time>2007-08-18T13:50:58Z</time>
      </trkpt>
      <trkpt lat="48.36674" lon="2.52438">
        <ele>84</ele>
        <time>2007-08-18T13:51:36Z</time>
      </trkpt>
      <trkpt lat="48.36675" lon="2.52417">
        <ele>85</ele>
        <time>2007-08-18T13:52:05Z</time>
      </trkpt>
      <trkpt lat="48.36666" lon="2.524">
        <ele>88</ele>
        <time>2007-08-18T13:52:28Z</time>
      </trkpt>
      <trkpt lat="48.36656" lon="2.52387">
        <ele>93</ele>
        <time>2007-08-18T13:52:53Z</time>
      </trkpt>
      <trkpt lat="48.36645" lon="2.5237">
        <ele>98</ele>
        <time>2007-08-18T13:53:14Z</time>
      </trkpt>
      <trkpt lat="48.36632" lon="2.52366">
        <ele>100</ele>
        <time>2007-08-18T13:53:39Z</time>
      </trkpt>
      <trkpt lat="48.36636" lon="2.52346">
        <ele>98</ele>
        <time>2007-08-18T13:54:14Z</time>
      </trkpt>
      <trkpt lat="48.3665" lon="2.52343">
        <ele>93</ele>
        <time>2007-08-18T13:54:38Z</time>
      </trkpt>
      <trkpt lat="48.36663" lon="2.52339">
        <ele>89</ele>
        <time>2007-08-18T13:54:55Z</time>
      </trkpt>
      <trkpt lat="48.36659" lon="2.52319">
        <ele>88</ele>
        <time>2007-08-18T13:55:12Z</time>
      </trkpt>
      <trkpt lat="48.36668" lon="2.52301">
        <ele>84</ele>
        <time>2007-08-18T13:55:36Z</time>
      </trkpt>
      <trkpt lat="48.36671" lon="2.5228">
        <ele>81</ele>
        <time>2007-08-18T13:55:56Z</time>
      </trkpt>
      <trkpt lat="48.36683" lon="2.52268">
        <ele>79</ele>
        <time>2007-08-18T13:56:09Z</time>
      </trkpt>
      <trkpt lat="48.36701" lon="2.5225">
        <ele>76</ele>
        <time>2007-08-18T13:56:28Z</time>
      </trkpt>
      <trkpt lat="48.3671" lon="2.52232">
        <ele>75</ele>
        <time>2007-08-18T13:56:39Z</time>
      </trkpt>
      <trkpt lat="48.36714" lon="2.52211">
        <ele>74</ele>
        <time>2007-08-18T13:56:52Z</time>
      </trkpt>
      <trkpt lat="48.36725" lon="2.52195">
        <ele>72</ele>
        <time>2007-08-18T13:57:04Z</time>
      </trkpt>
      <trkpt lat="48.36738" lon="2.52186">
        <ele>71</ele>
        <time>2007-08-18T13:57:17Z</time>
      </trkpt>
      <trkpt lat="48.3675" lon="2.52174">
        <ele>70</ele>
        <time>2007-08-18T13:57:28Z</time>
      </trkpt>
      <trkpt lat="48.36762" lon="2.52163">
        <ele>69</ele>
        <time>2007-08-18T13:57:40Z</time>
      </trkpt>
      <trkpt lat="48.3678" lon="2.52162">
        <ele>69</ele>
        <time>2007-08-18T13:57:57Z</time>
      </trkpt>
      <trkpt lat="48.36794" lon="2.52162">
        <ele>68</ele>
        <time>2007-08-18T13:58:07Z</time>
      </trkpt>
      <trkpt lat="48.36809" lon="2.52157">
        <ele>68</ele>
        <time>2007-08-18T13:58:18Z</time>
      </trkpt>
      <trkpt lat="48.36822" lon="2.52156">
        <ele>68</ele>
        <time>2007-08-18T13:58:28Z</time>
      </trkpt>
      <trkpt lat="48.36836" lon="2.52154">
        <ele>67</ele>
        <time>2007-08-18T13:58:38Z</time>
      </trkpt>
      <trkpt lat="48.36848" lon="2.52166">
        <ele>67</ele>
        <time>2007-08-18T13:58:51Z</time>
      </trkpt>
      <trkpt lat="48.36861" lon="2.52168">
        <ele>67</ele>
        <time>2007-08-18T13:59:01Z</time>
      </trkpt>
      <trkpt lat="48.36878" lon="2.52181">
        <ele>67</ele>
        <time>2007-08-18T13:59:18Z</time>
      </trkpt>
      <trkpt lat="48.36884" lon="2.52202">
        <ele>67</ele>
        <time>2007-08-18T13:59:35Z</time>
      </trkpt>
      <trkpt lat="48.36891" lon="2.52228">
        <ele>67</ele>
        <time>2007-08-18T13:59:52Z</time>
      </trkpt>
      <trkpt lat="48.36896" lon="2.52249">
        <ele>67</ele>
        <time>2007-08-18T14:00:04Z</time>
      </trkpt>
      <trkpt lat="48.36905" lon="2.52267">
        <ele>67</ele>
        <time>2007-08-18T14:00:16Z</time>
      </trkpt>
      <trkpt lat="48.36915" lon="2.52282">
        <ele>67</ele>
        <time>2007-08-18T14:00:24Z</time>
      </trkpt>
      <trkpt lat="48.36918" lon="2.52303">
        <ele>67</ele>
        <time>2007-08-18T14:00:37Z</time>
      </trkpt>
      <trkpt lat="48.3693" lon="2.52315">
        <ele>67</ele>
        <time>2007-08-18T14:00:46Z</time>
      </trkpt>
      <trkpt lat="48.36942" lon="2.52327">
        <ele>67</ele>
        <time>2007-08-18T14:00:56Z</time>
      </trkpt>
      <trkpt lat="48.36957" lon="2.52328">
        <ele>67</ele>
        <time>2007-08-18T14:01:02Z</time>
      </trkpt>
      <trkpt lat="48.36971" lon="2.52319">
        <ele>67</ele>
        <time>2007-08-18T14:01:14Z</time>
      </trkpt>
      <trkpt lat="48.36984" lon="2.52316">
        <ele>67</ele>
        <time>2007-08-18T14:01:23Z</time>
      </trkpt>
      <trkpt lat="48.36996" lon="2.52306">
        <ele>67</ele>
        <time>2007-08-18T14:01:34Z</time>
      </trkpt>
      <trkpt lat="48.37011" lon="2.52295">
        <ele>67</ele>
        <time>2007-08-18T14:01:46Z</time>
      </trkpt>
      <trkpt lat="48.37025" lon="2.52286">
        <ele>67</ele>
        <time>2007-08-18T14:01:58Z</time>
      </trkpt>
      <trkpt lat="48.37038" lon="2.52282">
        <ele>67</ele>
        <time>2007-08-18T14:02:08Z</time>
      </trkpt>
      <trkpt lat="48.37052" lon="2.52273">
        <ele>67</ele>
        <time>2007-08-18T14:02:21Z</time>
      </trkpt>
      <trkpt lat="48.37062" lon="2.52259">
        <ele>67</ele>
        <time>2007-08-18T14:02:31Z</time>
      </trkpt>
      <trkpt lat="48.37076" lon="2.52258">
        <ele>68</ele>
        <time>2007-08-18T14:02:39Z</time>
      </trkpt>
      <trkpt lat="48.37088" lon="2.52247">
        <ele>68</ele>
        <time>2007-08-18T14:02:51Z</time>
      </trkpt>
      <trkpt lat="48.371" lon="2.52231">
        <ele>68</ele>
        <time>2007-08-18T14:03:02Z</time>
      </trkpt>
      <trkpt lat="48.37112" lon="2.5222">
        <ele>68</ele>
        <time>2007-08-18T14:03:12Z</time>
      </trkpt>
      <trkpt lat="48.37124" lon="2.5221">
        <ele>68</ele>
        <time>2007-08-18T14:03:23Z</time>
      </trkpt>
      <trkpt lat="48.37137" lon="2.52204">
        <ele>68</ele>
        <time>2007-08-18T14:03:35Z</time>
      </trkpt>
      <trkpt lat="48.37152" lon="2.52202">
        <ele>68</ele>
        <time>2007-08-18T14:03:47Z</time>
      </trkpt>
      <trkpt lat="48.37164" lon="2.5219">
        <ele>68</ele>
        <time>2007-08-18T14:03:58Z</time>
      </trkpt>
      <trkpt lat="48.37173" lon="2.52172">
        <ele>68</ele>
        <time>2007-08-18T14:04:10Z</time>
      </trkpt>
      <trkpt lat="48.3717" lon="2.52151">
        <ele>68</ele>
        <time>2007-08-18T14:04:16Z</time>
      </trkpt>
      <trkpt lat="48.37172" lon="2.5213">
        <ele>68</ele>
        <time>2007-08-18T14:04:25Z</time>
      </trkpt>
      <trkpt lat="48.37164" lon="2.52111">
        <ele>68</ele>
        <time>2007-08-18T14:04:37Z</time>
      </trkpt>
      <trkpt lat="48.37164" lon="2.5209">
        <ele>68</ele>
        <time>2007-08-18T14:04:46Z</time>
      </trkpt>
      <trkpt lat="48.37164" lon="2.52064">
        <ele>68</ele>
        <time>2007-08-18T14:05:03Z</time>
      </trkpt>
      <trkpt lat="48.37166" lon="2.52037">
        <ele>68</ele>
        <time>2007-08-18T14:05:20Z</time>
      </trkpt>
      <trkpt lat="48.37185" lon="2.52027">
        <ele>68</ele>
        <time>2007-08-18T14:05:37Z</time>
      </trkpt>
      <trkpt lat="48.372" lon="2.52016">
        <ele>68</ele>
        <time>2007-08-18T14:05:50Z</time>
      </trkpt>
      <trkpt lat="48.37212" lon="2.52003">
        <ele>68</ele>
        <time>2007-08-18T14:06:03Z</time>
      </trkpt>
      <trkpt lat="48.37226" lon="2.51998">
        <ele>69</ele>
        <time>2007-08-18T14:06:14Z</time>
      </trkpt>
      <trkpt lat="48.37238" lon="2.51985">
        <ele>69</ele>
        <time>2007-08-18T14:06:27Z</time>
      </trkpt>
      <trkpt lat="48.37251" lon="2.51977">
        <ele>70</ele>
        <time>2007-08-18T14:06:39Z</time>
      </trkpt>
      <trkpt lat="48.37265" lon="2.5197">
        <ele>70</ele>
        <time>2007-08-18T14:06:50Z</time>
      </trkpt>
      <trkpt lat="48.37278" lon="2.51956">
        <ele>71</ele>
        <time>2007-08-18T14:07:03Z</time>
      </trkpt>
      <trkpt lat="48.37292" lon="2.51949">
        <ele>72</ele>
        <time>2007-08-18T14:07:15Z</time>
      </trkpt>
      <trkpt lat="48.37308" lon="2.51941">
        <ele>73</ele>
        <time>2007-08-18T14:07:32Z</time>
      </trkpt>
      <trkpt lat="48.3732" lon="2.51928">
        <ele>75</ele>
        <time>2007-08-18T14:07:43Z</time>
      </trkpt>
      <trkpt lat="48.37334" lon="2.51913">
        <ele>77</ele>
        <time>2007-08-18T14:08:00Z</time>
      </trkpt>
      <trkpt lat="48.37338" lon="2.51893">
        <ele>79</ele>
        <time>2007-08-18T14:08:17Z</time>
      </trkpt>
      <trkpt lat="48.37337" lon="2.51871">
        <ele>81</ele>
        <time>2007-08-18T14:08:28Z</time>
      </trkpt>
      <trkpt lat="48.3734" lon="2.5185">
        <ele>84</ele>
        <time>2007-08-18T14:08:47Z</time>
      </trkpt>
      <trkpt lat="48.37341" lon="2.51829">
        <ele>86</ele>
        <time>2007-08-18T14:09:09Z</time>
      </trkpt>
      <trkpt lat="48.37355" lon="2.51823">
        <ele>90</ele>
        <time>2007-08-18T14:09:41Z</time>
      </trkpt>
      <trkpt lat="48.37365" lon="2.51809">
        <ele>93</ele>
        <time>2007-08-18T14:10:12Z</time>
      </trkpt>
      <trkpt lat="48.37377" lon="2.51799">
        <ele>97</ele>
        <time>2007-08-18T14:10:42Z</time>
      </trkpt>
      <trkpt lat="48.37389" lon="2.51782">
        <ele>101</ele>
        <time>2007-08-18T14:10:59Z</time>
      </trkpt>
      <trkpt lat="48.37404" lon="2.51767">
        <ele>105</ele>
        <time>2007-08-18T14:11:16Z</time>
      </trkpt>
      <trkpt lat="48.37419" lon="2.5177">
        <ele>105</ele>
        <time>2007-08-18T14:11:36Z</time>
      </trkpt>
      <trkpt lat="48.37431" lon="2.51781">
        <ele>103</ele>
        <time>2007-08-18T14:11:47Z</time>
      </trkpt>
      <trkpt lat="48.37433" lon="2.51802">
        <ele>100</ele>
        <time>2007-08-18T14:12:05Z</time>
      </trkpt>
      <trkpt lat="48.37437" lon="2.51826">
        <ele>96</ele>
        <time>2007-08-18T14:12:23Z</time>
      </trkpt>
      <trkpt lat="48.37449" lon="2.51839">
        <ele>94</ele>
        <time>2007-08-18T14:12:32Z</time>
      </trkpt>
      <trkpt lat="48.37463" lon="2.51827">
        <ele>95</ele>
        <time>2007-08-18T14:12:49Z</time>
      </trkpt>
      <trkpt lat="48.37478" lon="2.51826">
        <ele>94</ele>
        <time>2007-08-18T14:13:06Z</time>
      </trkpt>
      <trkpt lat="48.37487" lon="2.51809">
        <ele>96</ele>
        <time>2007-08-18T14:13:18Z</time>
      </trkpt>
      <trkpt lat="48.37494" lon="2.5179">
        <ele>98</ele>
        <time>2007-08-18T14:13:30Z</time>
      </trkpt>
      <trkpt lat="48.37499" lon="2.51769">
        <ele>99</ele>
        <time>2007-08-18T14:13:43Z</time>
      </trkpt>
      <trkpt lat="48.37505" lon="2.51749">
        <ele>98</ele>
        <time>2007-08-18T14:13:53Z</time>
      </trkpt>
      <trkpt lat="48.37503" lon="2.51727">
        <ele>99</ele>
        <time>2007-08-18T14:14:03Z</time>
      </trkpt>
      <trkpt lat="48.37497" lon="2.51707">
        <ele>102</ele>
        <time>2007-08-18T14:14:14Z</time>
      </trkpt>
      <trkpt lat="48.3749" lon="2.51689">
        <ele>103</ele>
        <time>2007-08-18T14:14:25Z</time>
      </trkpt>
      <trkpt lat="48.37479" lon="2.51673">
        <ele>102</ele>
        <time>2007-08-18T14:14:36Z</time>
      </trkpt>
      <trkpt lat="48.3747" lon="2.51656">
        <ele>101</ele>
        <time>2007-08-18T14:14:46Z</time>
      </trkpt>
      <trkpt lat="48.37461" lon="2.51634">
        <ele>100</ele>
        <time>2007-08-18T14:15:03Z</time>
      </trkpt>
      <trkpt lat="48.37451" lon="2.5162">
        <ele>100</ele>
        <time>2007-08-18T14:15:14Z</time>
      </trkpt>
      <trkpt lat="48.37442" lon="2.51602">
        <ele>99</ele>
        <time>2007-08-18T14:15:25Z</time>
      </trkpt>
      <trkpt lat="48.37433" lon="2.51586">
        <ele>97</ele>
        <time>2007-08-18T14:15:34Z</time>
      </trkpt>
      <trkpt lat="48.37427" lon="2.51566">
        <ele>94</ele>
        <time>2007-08-18T14:15:47Z</time>
      </trkpt>
      <trkpt lat="48.37418" lon="2.5155">
        <ele>93</ele>
        <time>2007-08-18T14:16:00Z</time>
      </trkpt>
      <trkpt lat="48.37409" lon="2.51532">
        <ele>90</ele>
        <time>2007-08-18T14:16:13Z</time>
      </trkpt>
      <trkpt lat="48.37403" lon="2.51512">
        <ele>87</ele>
        <time>2007-08-18T14:16:24Z</time>
      </trkpt>
      <trkpt lat="48.37413" lon="2.51499">
        <ele>85</ele>
        <time>2007-08-18T14:16:43Z</time>
      </trkpt>
      <trkpt lat="48.37424" lon="2.51479">
        <ele>84</ele>
        <time>2007-08-18T14:16:52Z</time>
      </trkpt>
      <trkpt lat="48.37437" lon="2.51458">
        <ele>84</ele>
        <time>2007-08-18T14:17:11Z</time>
      </trkpt>
      <trkpt lat="48.37451" lon="2.51449">
        <ele>83</ele>
        <time>2007-08-18T14:17:23Z</time>
      </trkpt>
      <trkpt lat="48.37464" lon="2.51446">
        <ele>82</ele>
        <time>2007-08-18T14:17:34Z</time>
      </trkpt>
      <trkpt lat="48.37476" lon="2.51431">
        <ele>80</ele>
        <time>2007-08-18T14:17:51Z</time>
      </trkpt>
      <trkpt lat="48.3749" lon="2.51425">
        <ele>79</ele>
        <time>2007-08-18T14:18:03Z</time>
      </trkpt>
      <trkpt lat="48.37503" lon="2.51418">
        <ele>77</ele>
        <time>2007-08-18T14:18:20Z</time>
      </trkpt>
      <trkpt lat="48.37515" lon="2.51407">
        <ele>74</ele>
        <time>2007-08-18T14:18:38Z</time>
      </trkpt>
      <trkpt lat="48.37529" lon="2.51395">
        <ele>72</ele>
        <time>2007-08-18T14:18:55Z</time>
      </trkpt>
      <trkpt lat="48.37538" lon="2.51379">
        <ele>70</ele>
        <time>2007-08-18T14:19:08Z</time>
      </trkpt>
      <trkpt lat="48.37553" lon="2.51376">
        <ele>70</ele>
        <time>2007-08-18T14:19:18Z</time>
      </trkpt>
      <trkpt lat="48.37566" lon="2.51358">
        <ele>69</ele>
        <time>2007-08-18T14:19:35Z</time>
      </trkpt>
      <trkpt lat="48.37569" lon="2.51337">
        <ele>68</ele>
        <time>2007-08-18T14:19:48Z</time>
      </trkpt>
      <trkpt lat="48.37577" lon="2.51319">
        <ele>67</ele>
        <time>2007-08-18T14:19:58Z</time>
      </trkpt>
      <trkpt lat="48.37574" lon="2.51298">
        <ele>67</ele>
        <time>2007-08-18T14:20:04Z</time>
      </trkpt>
      <trkpt lat="48.37563" lon="2.51278">
        <ele>67</ele>
        <time>2007-08-18T14:20:16Z</time>
      </trkpt>
      <trkpt lat="48.37553" lon="2.51265">
        <ele>67</ele>
        <time>2007-08-18T14:20:25Z</time>
      </trkpt>
      <trkpt lat="48.37538" lon="2.5125">
        <ele>67</ele>
        <time>2007-08-18T14:20:37Z</time>
      </trkpt>
      <trkpt lat="48.37529" lon="2.51233">
        <ele>67</ele>
        <time>2007-08-18T14:20:49Z</time>
      </trkpt>
      <trkpt lat="48.37517" lon="2.51212">
        <ele>67</ele>
        <time>2007-08-18T14:21:06Z</time>
      </trkpt>
      <trkpt lat="48.37503" lon="2.51203">
        <ele>67</ele>
        <time>2007-08-18T14:21:14Z</time>
      </trkpt>
      <trkpt lat="48.37491" lon="2.51193">
        <ele>67</ele>
        <time>2007-08-18T14:21:26Z</time>
      </trkpt>
      <trkpt lat="48.37478" lon="2.51185">
        <ele>68</ele>
        <time>2007-08-18T14:21:34Z</time>
      </trkpt>
      <trkpt lat="48.37463" lon="2.51178">
        <ele>68</ele>
        <time>2007-08-18T14:21:52Z</time>
      </trkpt>
      <trkpt lat="48.37448" lon="2.5117">
        <ele>68</ele>
        <time>2007-08-18T14:22:05Z</time>
      </trkpt>
      <trkpt lat="48.37431" lon="2.5116">
        <ele>68</ele>
        <time>2007-08-18T14:22:12Z</time>
      </trkpt>
      <trkpt lat="48.37416" lon="2.51151">
        <ele>68</ele>
        <time>2007-08-18T14:22:31Z</time>
      </trkpt>
      <trkpt lat="48.37401" lon="2.51145">
        <ele>69</ele>
        <time>2007-08-18T14:22:40Z</time>
      </trkpt>
      <trkpt lat="48.37385" lon="2.5114">
        <ele>69</ele>
        <time>2007-08-18T14:22:50Z</time>
      </trkpt>
      <trkpt lat="48.37371" lon="2.51137">
        <ele>69</ele>
        <time>2007-08-18T14:23:02Z</time>
      </trkpt>
      <trkpt lat="48.37355" lon="2.51133">
        <ele>69</ele>
        <time>2007-08-18T14:23:13Z</time>
      </trkpt>
      <trkpt lat="48.3734" lon="2.51128">
        <ele>69</ele>
        <time>2007-08-18T14:23:23Z</time>
      </trkpt>
      <trkpt lat="48.3732" lon="2.51118">
        <ele>69</ele>
        <time>2007-08-18T14:23:40Z</time>
      </trkpt>
      <trkpt lat="48.37307" lon="2.51107">
        <ele>69</ele>
        <time>2007-08-18T14:23:53Z</time>
      </trkpt>
      <trkpt lat="48.37293" lon="2.51092">
        <ele>69</ele>
        <time>2007-08-18T14:24:10Z</time>
      </trkpt>
      <trkpt lat="48.37286" lon="2.51074">
        <ele>69</ele>
        <time>2007-08-18T14:24:19Z</time>
      </trkpt>
      <trkpt lat="48.37274" lon="2.51061">
        <ele>69</ele>
        <time>2007-08-18T14:24:36Z</time>
      </trkpt>
    </trkseg>
  </trk>
</gpx>